<?xml version="1.0" encoding="UTF-8" standalone="no" ?>
<gpx xmlns="http://www.topografix.com/GPX/1/1" xmlns:xsi="http://www.w3.org/2001/XMLSchema-instance" xsi:schemaLocation="http://www.topografix.com/GPX/1/1 http://www.topografix.com/GPX/1/1/gpx.xsd" version="1.1" creator="VisuGPX - https://www.visugpx.com">
  <metadata>
    <name>auxonne</name>
    <desc><![CDATA[petite sortie tranquille avec montée de la serre]]></desc>
  </metadata>
  <trk>
    <name><![CDATA[ACTIVE LOG 002]]></name>
    <trkseg>
      <trkpt lat="47.07746" lon="5.4892">
        <ele>173.655273</ele>
        <time>2012-09-28T11:48:35Z</time>
      </trkpt>
      <trkpt lat="47.07734" lon="5.48949">
        <ele>176.058594</ele>
        <time>2012-09-28T11:48:42Z</time>
      </trkpt>
      <trkpt lat="47.07712" lon="5.48969">
        <ele>180.384521</ele>
        <time>2012-09-28T11:48:48Z</time>
      </trkpt>
      <trkpt lat="47.07705" lon="5.48976">
        <ele>183.268433</ele>
        <time>2012-09-28T11:48:50Z</time>
      </trkpt>
      <trkpt lat="47.07702" lon="5.4898">
        <ele>181.826416</ele>
        <time>2012-09-28T11:48:51Z</time>
      </trkpt>
      <trkpt lat="47.07678" lon="5.49">
        <ele>184.229858</ele>
        <time>2012-09-28T11:48:57Z</time>
      </trkpt>
      <trkpt lat="47.0765" lon="5.49033">
        <ele>188.075073</ele>
        <time>2012-09-28T11:49:05Z</time>
      </trkpt>
      <trkpt lat="47.07647" lon="5.49037">
        <ele>188.075073</ele>
        <time>2012-09-28T11:49:06Z</time>
      </trkpt>
      <trkpt lat="47.0762" lon="5.49074">
        <ele>191.920288</ele>
        <time>2012-09-28T11:49:15Z</time>
      </trkpt>
      <trkpt lat="47.07617" lon="5.49079">
        <ele>191.439575</ele>
        <time>2012-09-28T11:49:16Z</time>
      </trkpt>
      <trkpt lat="47.07604" lon="5.491">
        <ele>196.726929</ele>
        <time>2012-09-28T11:49:21Z</time>
      </trkpt>
      <trkpt lat="47.07602" lon="5.49104">
        <ele>191.920288</ele>
        <time>2012-09-28T11:49:22Z</time>
      </trkpt>
      <trkpt lat="47.07592" lon="5.49122">
        <ele>188.555786</ele>
        <time>2012-09-28T11:49:26Z</time>
      </trkpt>
      <trkpt lat="47.07589" lon="5.49127">
        <ele>192.401123</ele>
        <time>2012-09-28T11:49:27Z</time>
      </trkpt>
      <trkpt lat="47.07559" lon="5.49183">
        <ele>193.843018</ele>
        <time>2012-09-28T11:49:38Z</time>
      </trkpt>
      <trkpt lat="47.07523" lon="5.49258">
        <ele>193.362305</ele>
        <time>2012-09-28T11:49:51Z</time>
      </trkpt>
      <trkpt lat="47.07476" lon="5.49344">
        <ele>195.765625</ele>
        <time>2012-09-28T11:50:09Z</time>
      </trkpt>
      <trkpt lat="47.07439" lon="5.49409">
        <ele>198.649536</ele>
        <time>2012-09-28T11:50:28Z</time>
      </trkpt>
      <trkpt lat="47.07428" lon="5.49411">
        <ele>199.130127</ele>
        <time>2012-09-28T11:50:32Z</time>
      </trkpt>
      <trkpt lat="47.07416" lon="5.49436">
        <ele>199.61084</ele>
        <time>2012-09-28T11:50:38Z</time>
      </trkpt>
      <trkpt lat="47.07416" lon="5.49456">
        <ele>200.091675</ele>
        <time>2012-09-28T11:50:41Z</time>
      </trkpt>
      <trkpt lat="47.0741" lon="5.49478">
        <ele>200.572266</ele>
        <time>2012-09-28T11:50:45Z</time>
      </trkpt>
      <trkpt lat="47.07372" lon="5.49569">
        <ele>203.456177</ele>
        <time>2012-09-28T11:51:04Z</time>
      </trkpt>
      <trkpt lat="47.07333" lon="5.49687">
        <ele>205.859497</ele>
        <time>2012-09-28T11:51:26Z</time>
      </trkpt>
      <trkpt lat="47.07328" lon="5.49704">
        <ele>205.859497</ele>
        <time>2012-09-28T11:51:29Z</time>
      </trkpt>
      <trkpt lat="47.07316" lon="5.49719">
        <ele>206.820679</ele>
        <time>2012-09-28T11:51:33Z</time>
      </trkpt>
      <trkpt lat="47.073" lon="5.49765">
        <ele>207.301392</ele>
        <time>2012-09-28T11:51:44Z</time>
      </trkpt>
      <trkpt lat="47.07325" lon="5.49786">
        <ele>207.782104</ele>
        <time>2012-09-28T11:51:51Z</time>
      </trkpt>
      <trkpt lat="47.07357" lon="5.49801">
        <ele>207.301392</ele>
        <time>2012-09-28T11:51:57Z</time>
      </trkpt>
      <trkpt lat="47.07387" lon="5.49813">
        <ele>207.301392</ele>
        <time>2012-09-28T11:52:02Z</time>
      </trkpt>
      <trkpt lat="47.07409" lon="5.49824">
        <ele>207.301392</ele>
        <time>2012-09-28T11:52:06Z</time>
      </trkpt>
      <trkpt lat="47.07425" lon="5.49826">
        <ele>206.820679</ele>
        <time>2012-09-28T11:52:09Z</time>
      </trkpt>
      <trkpt lat="47.07525" lon="5.49859">
        <ele>204.41748</ele>
        <time>2012-09-28T11:52:26Z</time>
      </trkpt>
      <trkpt lat="47.07546" lon="5.49877">
        <ele>204.41748</ele>
        <time>2012-09-28T11:52:31Z</time>
      </trkpt>
      <trkpt lat="47.07567" lon="5.49868">
        <ele>204.41748</ele>
        <time>2012-09-28T11:52:36Z</time>
      </trkpt>
      <trkpt lat="47.07662" lon="5.49866">
        <ele>206.340088</ele>
        <time>2012-09-28T11:52:56Z</time>
      </trkpt>
      <trkpt lat="47.07709" lon="5.49866">
        <ele>208.262817</ele>
        <time>2012-09-28T11:53:06Z</time>
      </trkpt>
      <trkpt lat="47.07812" lon="5.4986">
        <ele>209.224121</ele>
        <time>2012-09-28T11:53:25Z</time>
      </trkpt>
      <trkpt lat="47.07945" lon="5.49857">
        <ele>212.588623</ele>
        <time>2012-09-28T11:53:48Z</time>
      </trkpt>
      <trkpt lat="47.08018" lon="5.49854">
        <ele>215.953247</ele>
        <time>2012-09-28T11:54:04Z</time>
      </trkpt>
      <trkpt lat="47.08105" lon="5.49848">
        <ele>217.395386</ele>
        <time>2012-09-28T11:54:25Z</time>
      </trkpt>
      <trkpt lat="47.08137" lon="5.49849">
        <ele>217.395386</ele>
        <time>2012-09-28T11:54:39Z</time>
      </trkpt>
      <trkpt lat="47.08146" lon="5.49846">
        <ele>218.356567</ele>
        <time>2012-09-28T11:55:26Z</time>
      </trkpt>
      <trkpt lat="47.08167" lon="5.49843">
        <ele>218.83728</ele>
        <time>2012-09-28T11:55:33Z</time>
      </trkpt>
      <trkpt lat="47.08175" lon="5.49865">
        <ele>218.83728</ele>
        <time>2012-09-28T11:55:37Z</time>
      </trkpt>
      <trkpt lat="47.08171" lon="5.50009">
        <ele>218.356567</ele>
        <time>2012-09-28T11:55:55Z</time>
      </trkpt>
      <trkpt lat="47.08165" lon="5.50124">
        <ele>219.798584</ele>
        <time>2012-09-28T11:56:09Z</time>
      </trkpt>
      <trkpt lat="47.08185" lon="5.50233">
        <ele>221.240601</ele>
        <time>2012-09-28T11:56:23Z</time>
      </trkpt>
      <trkpt lat="47.08181" lon="5.50335">
        <ele>223.643799</ele>
        <time>2012-09-28T11:56:37Z</time>
      </trkpt>
      <trkpt lat="47.08178" lon="5.50409">
        <ele>225.566528</ele>
        <time>2012-09-28T11:56:49Z</time>
      </trkpt>
      <trkpt lat="47.0818" lon="5.50486">
        <ele>226.047119</ele>
        <time>2012-09-28T11:57:01Z</time>
      </trkpt>
      <trkpt lat="47.08205" lon="5.5062">
        <ele>228.450439</ele>
        <time>2012-09-28T11:57:23Z</time>
      </trkpt>
      <trkpt lat="47.08214" lon="5.50675">
        <ele>227.969727</ele>
        <time>2012-09-28T11:57:39Z</time>
      </trkpt>
      <trkpt lat="47.08231" lon="5.50662">
        <ele>227.969727</ele>
        <time>2012-09-28T11:57:46Z</time>
      </trkpt>
      <trkpt lat="47.08261" lon="5.50608">
        <ele>224.124512</ele>
        <time>2012-09-28T11:57:55Z</time>
      </trkpt>
      <trkpt lat="47.08274" lon="5.5058">
        <ele>221.721191</ele>
        <time>2012-09-28T11:58:00Z</time>
      </trkpt>
      <trkpt lat="47.08293" lon="5.50577">
        <ele>221.240601</ele>
        <time>2012-09-28T11:58:05Z</time>
      </trkpt>
      <trkpt lat="47.08363" lon="5.50652">
        <ele>221.721191</ele>
        <time>2012-09-28T11:58:24Z</time>
      </trkpt>
      <trkpt lat="47.08412" lon="5.50698">
        <ele>217.875977</ele>
        <time>2012-09-28T11:58:33Z</time>
      </trkpt>
      <trkpt lat="47.08472" lon="5.50742">
        <ele>214.51123</ele>
        <time>2012-09-28T11:58:43Z</time>
      </trkpt>
      <trkpt lat="47.08504" lon="5.50769">
        <ele>211.627441</ele>
        <time>2012-09-28T11:58:51Z</time>
      </trkpt>
      <trkpt lat="47.08502" lon="5.50796">
        <ele>210.666016</ele>
        <time>2012-09-28T11:58:55Z</time>
      </trkpt>
      <trkpt lat="47.08481" lon="5.50847">
        <ele>207.782104</ele>
        <time>2012-09-28T11:59:01Z</time>
      </trkpt>
      <trkpt lat="47.08461" lon="5.5088">
        <ele>205.378784</ele>
        <time>2012-09-28T11:59:05Z</time>
      </trkpt>
      <trkpt lat="47.08455" lon="5.50888">
        <ele>204.41748</ele>
        <time>2012-09-28T11:59:06Z</time>
      </trkpt>
      <trkpt lat="47.08446" lon="5.50909">
        <ele>203.456177</ele>
        <time>2012-09-28T11:59:08Z</time>
      </trkpt>
      <trkpt lat="47.08427" lon="5.50956">
        <ele>200.091675</ele>
        <time>2012-09-28T11:59:12Z</time>
      </trkpt>
      <trkpt lat="47.08415" lon="5.50978">
        <ele>199.130127</ele>
        <time>2012-09-28T11:59:14Z</time>
      </trkpt>
      <trkpt lat="47.08407" lon="5.51025">
        <ele>198.168945</ele>
        <time>2012-09-28T11:59:18Z</time>
      </trkpt>
      <trkpt lat="47.08408" lon="5.51049">
        <ele>197.20752</ele>
        <time>2012-09-28T11:59:20Z</time>
      </trkpt>
      <trkpt lat="47.08369" lon="5.51122">
        <ele>196.246338</ele>
        <time>2012-09-28T11:59:28Z</time>
      </trkpt>
      <trkpt lat="47.08362" lon="5.51127">
        <ele>195.765625</ele>
        <time>2012-09-28T11:59:29Z</time>
      </trkpt>
      <trkpt lat="47.08339" lon="5.51143">
        <ele>195.765625</ele>
        <time>2012-09-28T11:59:32Z</time>
      </trkpt>
      <trkpt lat="47.08315" lon="5.51175">
        <ele>195.284912</ele>
        <time>2012-09-28T11:59:36Z</time>
      </trkpt>
      <trkpt lat="47.08256" lon="5.51315">
        <ele>196.246338</ele>
        <time>2012-09-28T11:59:51Z</time>
      </trkpt>
      <trkpt lat="47.08243" lon="5.51338">
        <ele>196.246338</ele>
        <time>2012-09-28T11:59:54Z</time>
      </trkpt>
      <trkpt lat="47.08188" lon="5.5141">
        <ele>200.091675</ele>
        <time>2012-09-28T12:00:08Z</time>
      </trkpt>
      <trkpt lat="47.08185" lon="5.51415">
        <ele>200.572266</ele>
        <time>2012-09-28T12:00:09Z</time>
      </trkpt>
      <trkpt lat="47.08177" lon="5.51429">
        <ele>201.533569</ele>
        <time>2012-09-28T12:00:12Z</time>
      </trkpt>
      <trkpt lat="47.08167" lon="5.51443">
        <ele>202.494873</ele>
        <time>2012-09-28T12:00:15Z</time>
      </trkpt>
      <trkpt lat="47.08155" lon="5.51467">
        <ele>203.93689</ele>
        <time>2012-09-28T12:00:20Z</time>
      </trkpt>
      <trkpt lat="47.0814" lon="5.51481">
        <ele>204.41748</ele>
        <time>2012-09-28T12:00:24Z</time>
      </trkpt>
      <trkpt lat="47.08104" lon="5.51526">
        <ele>206.340088</ele>
        <time>2012-09-28T12:00:37Z</time>
      </trkpt>
      <trkpt lat="47.08097" lon="5.51534">
        <ele>205.859497</ele>
        <time>2012-09-28T12:00:39Z</time>
      </trkpt>
      <trkpt lat="47.08049" lon="5.51551">
        <ele>203.93689</ele>
        <time>2012-09-28T12:00:48Z</time>
      </trkpt>
      <trkpt lat="47.08027" lon="5.51555">
        <ele>203.456177</ele>
        <time>2012-09-28T12:00:51Z</time>
      </trkpt>
      <trkpt lat="47.08005" lon="5.5157">
        <ele>202.494873</ele>
        <time>2012-09-28T12:00:54Z</time>
      </trkpt>
      <trkpt lat="47.07985" lon="5.51597">
        <ele>201.052856</ele>
        <time>2012-09-28T12:00:57Z</time>
      </trkpt>
      <trkpt lat="47.07936" lon="5.51699">
        <ele>198.168945</ele>
        <time>2012-09-28T12:01:06Z</time>
      </trkpt>
      <trkpt lat="47.07918" lon="5.51748">
        <ele>197.688232</ele>
        <time>2012-09-28T12:01:10Z</time>
      </trkpt>
      <trkpt lat="47.07909" lon="5.51805">
        <ele>197.688232</ele>
        <time>2012-09-28T12:01:15Z</time>
      </trkpt>
      <trkpt lat="47.07911" lon="5.51984">
        <ele>196.246338</ele>
        <time>2012-09-28T12:01:32Z</time>
      </trkpt>
      <trkpt lat="47.07912" lon="5.52142">
        <ele>197.20752</ele>
        <time>2012-09-28T12:01:50Z</time>
      </trkpt>
      <trkpt lat="47.07942" lon="5.52231">
        <ele>196.726929</ele>
        <time>2012-09-28T12:02:02Z</time>
      </trkpt>
      <trkpt lat="47.0798" lon="5.52289">
        <ele>196.726929</ele>
        <time>2012-09-28T12:02:12Z</time>
      </trkpt>
      <trkpt lat="47.0803" lon="5.52372">
        <ele>196.726929</ele>
        <time>2012-09-28T12:02:26Z</time>
      </trkpt>
      <trkpt lat="47.08105" lon="5.52532">
        <ele>197.20752</ele>
        <time>2012-09-28T12:02:50Z</time>
      </trkpt>
      <trkpt lat="47.08177" lon="5.52687">
        <ele>197.688232</ele>
        <time>2012-09-28T12:03:13Z</time>
      </trkpt>
      <trkpt lat="47.08201" lon="5.52751">
        <ele>197.688232</ele>
        <time>2012-09-28T12:03:22Z</time>
      </trkpt>
      <trkpt lat="47.08236" lon="5.52853">
        <ele>197.688232</ele>
        <time>2012-09-28T12:03:36Z</time>
      </trkpt>
      <trkpt lat="47.08263" lon="5.52999">
        <ele>198.168945</ele>
        <time>2012-09-28T12:03:55Z</time>
      </trkpt>
      <trkpt lat="47.08266" lon="5.53007">
        <ele>198.168945</ele>
        <time>2012-09-28T12:03:56Z</time>
      </trkpt>
      <trkpt lat="47.08289" lon="5.53077">
        <ele>198.649536</ele>
        <time>2012-09-28T12:04:06Z</time>
      </trkpt>
      <trkpt lat="47.08316" lon="5.53183">
        <ele>199.130127</ele>
        <time>2012-09-28T12:04:20Z</time>
      </trkpt>
      <trkpt lat="47.08324" lon="5.5322">
        <ele>199.130127</ele>
        <time>2012-09-28T12:04:25Z</time>
      </trkpt>
      <trkpt lat="47.08319" lon="5.53362">
        <ele>199.130127</ele>
        <time>2012-09-28T12:04:42Z</time>
      </trkpt>
      <trkpt lat="47.08335" lon="5.53485">
        <ele>199.61084</ele>
        <time>2012-09-28T12:04:57Z</time>
      </trkpt>
      <trkpt lat="47.08337" lon="5.53493">
        <ele>199.61084</ele>
        <time>2012-09-28T12:04:58Z</time>
      </trkpt>
      <trkpt lat="47.08347" lon="5.53523">
        <ele>199.61084</ele>
        <time>2012-09-28T12:05:02Z</time>
      </trkpt>
      <trkpt lat="47.08354" lon="5.53539">
        <ele>199.130127</ele>
        <time>2012-09-28T12:05:04Z</time>
      </trkpt>
      <trkpt lat="47.08378" lon="5.53637">
        <ele>199.130127</ele>
        <time>2012-09-28T12:05:17Z</time>
      </trkpt>
      <trkpt lat="47.08386" lon="5.53726">
        <ele>199.61084</ele>
        <time>2012-09-28T12:05:28Z</time>
      </trkpt>
      <trkpt lat="47.08385" lon="5.53742">
        <ele>199.130127</ele>
        <time>2012-09-28T12:05:30Z</time>
      </trkpt>
      <trkpt lat="47.08378" lon="5.53776">
        <ele>199.130127</ele>
        <time>2012-09-28T12:05:34Z</time>
      </trkpt>
      <trkpt lat="47.08373" lon="5.53791">
        <ele>199.130127</ele>
        <time>2012-09-28T12:05:36Z</time>
      </trkpt>
      <trkpt lat="47.08352" lon="5.5384">
        <ele>199.130127</ele>
        <time>2012-09-28T12:05:43Z</time>
      </trkpt>
      <trkpt lat="47.08343" lon="5.5386">
        <ele>199.130127</ele>
        <time>2012-09-28T12:05:46Z</time>
      </trkpt>
      <trkpt lat="47.08332" lon="5.53903">
        <ele>199.130127</ele>
        <time>2012-09-28T12:05:52Z</time>
      </trkpt>
      <trkpt lat="47.08342" lon="5.54026">
        <ele>199.61084</ele>
        <time>2012-09-28T12:06:08Z</time>
      </trkpt>
      <trkpt lat="47.08345" lon="5.54042">
        <ele>199.61084</ele>
        <time>2012-09-28T12:06:10Z</time>
      </trkpt>
      <trkpt lat="47.08361" lon="5.54113">
        <ele>199.61084</ele>
        <time>2012-09-28T12:06:19Z</time>
      </trkpt>
      <trkpt lat="47.08382" lon="5.54188">
        <ele>199.61084</ele>
        <time>2012-09-28T12:06:29Z</time>
      </trkpt>
      <trkpt lat="47.08408" lon="5.54257">
        <ele>199.61084</ele>
        <time>2012-09-28T12:06:39Z</time>
      </trkpt>
      <trkpt lat="47.08421" lon="5.54283">
        <ele>199.61084</ele>
        <time>2012-09-28T12:06:43Z</time>
      </trkpt>
      <trkpt lat="47.08495" lon="5.54348">
        <ele>199.61084</ele>
        <time>2012-09-28T12:06:58Z</time>
      </trkpt>
      <trkpt lat="47.08514" lon="5.54362">
        <ele>199.61084</ele>
        <time>2012-09-28T12:07:02Z</time>
      </trkpt>
      <trkpt lat="47.08603" lon="5.54404">
        <ele>199.61084</ele>
        <time>2012-09-28T12:07:19Z</time>
      </trkpt>
      <trkpt lat="47.0862" lon="5.54406">
        <ele>199.61084</ele>
        <time>2012-09-28T12:07:22Z</time>
      </trkpt>
      <trkpt lat="47.08657" lon="5.54414">
        <ele>200.091675</ele>
        <time>2012-09-28T12:07:29Z</time>
      </trkpt>
      <trkpt lat="47.0872" lon="5.54451">
        <ele>200.572266</ele>
        <time>2012-09-28T12:07:43Z</time>
      </trkpt>
      <trkpt lat="47.08728" lon="5.54458">
        <ele>201.052856</ele>
        <time>2012-09-28T12:07:45Z</time>
      </trkpt>
      <trkpt lat="47.08743" lon="5.54475">
        <ele>201.533569</ele>
        <time>2012-09-28T12:07:49Z</time>
      </trkpt>
      <trkpt lat="47.08754" lon="5.5448">
        <ele>201.533569</ele>
        <time>2012-09-28T12:07:51Z</time>
      </trkpt>
      <trkpt lat="47.08841" lon="5.54519">
        <ele>201.533569</ele>
        <time>2012-09-28T12:08:06Z</time>
      </trkpt>
      <trkpt lat="47.08915" lon="5.54571">
        <ele>201.052856</ele>
        <time>2012-09-28T12:08:21Z</time>
      </trkpt>
      <trkpt lat="47.08926" lon="5.54577">
        <ele>201.052856</ele>
        <time>2012-09-28T12:08:24Z</time>
      </trkpt>
      <trkpt lat="47.08953" lon="5.54562">
        <ele>200.572266</ele>
        <time>2012-09-28T12:08:30Z</time>
      </trkpt>
      <trkpt lat="47.0897" lon="5.5455">
        <ele>200.091675</ele>
        <time>2012-09-28T12:08:33Z</time>
      </trkpt>
      <trkpt lat="47.08997" lon="5.54536">
        <ele>199.61084</ele>
        <time>2012-09-28T12:08:37Z</time>
      </trkpt>
      <trkpt lat="47.09108" lon="5.54494">
        <ele>199.61084</ele>
        <time>2012-09-28T12:08:57Z</time>
      </trkpt>
      <trkpt lat="47.09239" lon="5.54392">
        <ele>199.61084</ele>
        <time>2012-09-28T12:09:23Z</time>
      </trkpt>
      <trkpt lat="47.0935" lon="5.54347">
        <ele>199.61084</ele>
        <time>2012-09-28T12:09:44Z</time>
      </trkpt>
      <trkpt lat="47.09484" lon="5.54347">
        <ele>200.091675</ele>
        <time>2012-09-28T12:10:09Z</time>
      </trkpt>
      <trkpt lat="47.09631" lon="5.54346">
        <ele>200.572266</ele>
        <time>2012-09-28T12:10:37Z</time>
      </trkpt>
      <trkpt lat="47.09668" lon="5.54346">
        <ele>200.572266</ele>
        <time>2012-09-28T12:10:45Z</time>
      </trkpt>
      <trkpt lat="47.09688" lon="5.5437">
        <ele>200.572266</ele>
        <time>2012-09-28T12:10:51Z</time>
      </trkpt>
      <trkpt lat="47.09748" lon="5.54578">
        <ele>200.572266</ele>
        <time>2012-09-28T12:11:18Z</time>
      </trkpt>
      <trkpt lat="47.09788" lon="5.54731">
        <ele>201.052856</ele>
        <time>2012-09-28T12:11:36Z</time>
      </trkpt>
      <trkpt lat="47.09822" lon="5.54903">
        <ele>201.052856</ele>
        <time>2012-09-28T12:11:58Z</time>
      </trkpt>
      <trkpt lat="47.09855" lon="5.55071">
        <ele>201.533569</ele>
        <time>2012-09-28T12:12:20Z</time>
      </trkpt>
      <trkpt lat="47.099" lon="5.55244">
        <ele>201.533569</ele>
        <time>2012-09-28T12:12:41Z</time>
      </trkpt>
      <trkpt lat="47.0997" lon="5.5539">
        <ele>202.014282</ele>
        <time>2012-09-28T12:13:03Z</time>
      </trkpt>
      <trkpt lat="47.10062" lon="5.55553">
        <ele>202.014282</ele>
        <time>2012-09-28T12:13:29Z</time>
      </trkpt>
      <trkpt lat="47.10154" lon="5.55634">
        <ele>202.494873</ele>
        <time>2012-09-28T12:13:49Z</time>
      </trkpt>
      <trkpt lat="47.1024" lon="5.55734">
        <ele>202.494873</ele>
        <time>2012-09-28T12:14:08Z</time>
      </trkpt>
      <trkpt lat="47.10278" lon="5.55842">
        <ele>202.494873</ele>
        <time>2012-09-28T12:14:24Z</time>
      </trkpt>
      <trkpt lat="47.10277" lon="5.55865">
        <ele>202.494873</ele>
        <time>2012-09-28T12:14:27Z</time>
      </trkpt>
      <trkpt lat="47.10264" lon="5.55991">
        <ele>202.494873</ele>
        <time>2012-09-28T12:14:43Z</time>
      </trkpt>
      <trkpt lat="47.10275" lon="5.56139">
        <ele>202.975464</ele>
        <time>2012-09-28T12:15:03Z</time>
      </trkpt>
      <trkpt lat="47.10274" lon="5.56203">
        <ele>202.975464</ele>
        <time>2012-09-28T12:15:12Z</time>
      </trkpt>
      <trkpt lat="47.10252" lon="5.56296">
        <ele>203.93689</ele>
        <time>2012-09-28T12:15:27Z</time>
      </trkpt>
      <trkpt lat="47.10255" lon="5.56328">
        <ele>204.41748</ele>
        <time>2012-09-28T12:15:32Z</time>
      </trkpt>
      <trkpt lat="47.10261" lon="5.56338">
        <ele>204.41748</ele>
        <time>2012-09-28T12:15:34Z</time>
      </trkpt>
      <trkpt lat="47.10266" lon="5.56371">
        <ele>205.378784</ele>
        <time>2012-09-28T12:15:39Z</time>
      </trkpt>
      <trkpt lat="47.10245" lon="5.56455">
        <ele>208.262817</ele>
        <time>2012-09-28T12:15:54Z</time>
      </trkpt>
      <trkpt lat="47.10213" lon="5.56532">
        <ele>211.627441</ele>
        <time>2012-09-28T12:16:10Z</time>
      </trkpt>
      <trkpt lat="47.1019" lon="5.56595">
        <ele>214.51123</ele>
        <time>2012-09-28T12:16:24Z</time>
      </trkpt>
      <trkpt lat="47.10194" lon="5.56629">
        <ele>216.914673</ele>
        <time>2012-09-28T12:16:31Z</time>
      </trkpt>
      <trkpt lat="47.10212" lon="5.56627">
        <ele>218.356567</ele>
        <time>2012-09-28T12:16:36Z</time>
      </trkpt>
      <trkpt lat="47.10266" lon="5.56584">
        <ele>221.721191</ele>
        <time>2012-09-28T12:16:53Z</time>
      </trkpt>
      <trkpt lat="47.1031" lon="5.56541">
        <ele>224.605225</ele>
        <time>2012-09-28T12:17:08Z</time>
      </trkpt>
      <trkpt lat="47.10352" lon="5.56516">
        <ele>227.969727</ele>
        <time>2012-09-28T12:17:21Z</time>
      </trkpt>
      <trkpt lat="47.10398" lon="5.56465">
        <ele>229.411743</ele>
        <time>2012-09-28T12:17:35Z</time>
      </trkpt>
      <trkpt lat="47.10431" lon="5.56444">
        <ele>228.931152</ele>
        <time>2012-09-28T12:17:42Z</time>
      </trkpt>
      <trkpt lat="47.1053" lon="5.56422">
        <ele>229.411743</ele>
        <time>2012-09-28T12:18:01Z</time>
      </trkpt>
      <trkpt lat="47.1055" lon="5.5641">
        <ele>227.969727</ele>
        <time>2012-09-28T12:18:04Z</time>
      </trkpt>
      <trkpt lat="47.1058" lon="5.56414">
        <ele>227.008545</ele>
        <time>2012-09-28T12:18:08Z</time>
      </trkpt>
      <trkpt lat="47.10682" lon="5.56479">
        <ele>229.892334</ele>
        <time>2012-09-28T12:18:26Z</time>
      </trkpt>
      <trkpt lat="47.10757" lon="5.56529">
        <ele>230.85376</ele>
        <time>2012-09-28T12:18:43Z</time>
      </trkpt>
      <trkpt lat="47.10833" lon="5.56592">
        <ele>230.373047</ele>
        <time>2012-09-28T12:19:00Z</time>
      </trkpt>
      <trkpt lat="47.10945" lon="5.56709">
        <ele>229.411743</ele>
        <time>2012-09-28T12:19:24Z</time>
      </trkpt>
      <trkpt lat="47.1103" lon="5.56811">
        <ele>227.008545</ele>
        <time>2012-09-28T12:19:40Z</time>
      </trkpt>
      <trkpt lat="47.11116" lon="5.56961">
        <ele>225.566528</ele>
        <time>2012-09-28T12:20:00Z</time>
      </trkpt>
      <trkpt lat="47.11212" lon="5.57126">
        <ele>227.969727</ele>
        <time>2012-09-28T12:20:25Z</time>
      </trkpt>
      <trkpt lat="47.11296" lon="5.57262">
        <ele>228.450439</ele>
        <time>2012-09-28T12:20:46Z</time>
      </trkpt>
      <trkpt lat="47.11369" lon="5.57329">
        <ele>230.373047</ele>
        <time>2012-09-28T12:21:02Z</time>
      </trkpt>
      <trkpt lat="47.11471" lon="5.57382">
        <ele>227.008545</ele>
        <time>2012-09-28T12:21:19Z</time>
      </trkpt>
      <trkpt lat="47.11518" lon="5.5741">
        <ele>224.605225</ele>
        <time>2012-09-28T12:21:25Z</time>
      </trkpt>
      <trkpt lat="47.11544" lon="5.57424">
        <ele>223.643799</ele>
        <time>2012-09-28T12:21:28Z</time>
      </trkpt>
      <trkpt lat="47.11597" lon="5.57401">
        <ele>220.279175</ele>
        <time>2012-09-28T12:21:34Z</time>
      </trkpt>
      <trkpt lat="47.11603" lon="5.57388">
        <ele>219.317993</ele>
        <time>2012-09-28T12:21:35Z</time>
      </trkpt>
      <trkpt lat="47.11648" lon="5.57295">
        <ele>215.953247</ele>
        <time>2012-09-28T12:21:42Z</time>
      </trkpt>
      <trkpt lat="47.1168" lon="5.5723">
        <ele>213.069336</ele>
        <time>2012-09-28T12:21:47Z</time>
      </trkpt>
      <trkpt lat="47.11726" lon="5.57137">
        <ele>210.185425</ele>
        <time>2012-09-28T12:21:55Z</time>
      </trkpt>
      <trkpt lat="47.11804" lon="5.56956">
        <ele>207.301392</ele>
        <time>2012-09-28T12:22:12Z</time>
      </trkpt>
      <trkpt lat="47.11819" lon="5.56916">
        <ele>206.340088</ele>
        <time>2012-09-28T12:22:16Z</time>
      </trkpt>
      <trkpt lat="47.11888" lon="5.56841">
        <ele>206.340088</ele>
        <time>2012-09-28T12:22:28Z</time>
      </trkpt>
      <trkpt lat="47.11984" lon="5.56749">
        <ele>205.859497</ele>
        <time>2012-09-28T12:22:48Z</time>
      </trkpt>
      <trkpt lat="47.12065" lon="5.56665">
        <ele>204.898071</ele>
        <time>2012-09-28T12:23:06Z</time>
      </trkpt>
      <trkpt lat="47.12107" lon="5.56676">
        <ele>205.378784</ele>
        <time>2012-09-28T12:23:14Z</time>
      </trkpt>
      <trkpt lat="47.12114" lon="5.5669">
        <ele>204.898071</ele>
        <time>2012-09-28T12:23:16Z</time>
      </trkpt>
      <trkpt lat="47.1218" lon="5.5684">
        <ele>205.378784</ele>
        <time>2012-09-28T12:23:37Z</time>
      </trkpt>
      <trkpt lat="47.12251" lon="5.56878">
        <ele>205.378784</ele>
        <time>2012-09-28T12:23:50Z</time>
      </trkpt>
      <trkpt lat="47.12299" lon="5.56871">
        <ele>206.340088</ele>
        <time>2012-09-28T12:24:01Z</time>
      </trkpt>
      <trkpt lat="47.12303" lon="5.56773">
        <ele>206.340088</ele>
        <time>2012-09-28T12:24:14Z</time>
      </trkpt>
      <trkpt lat="47.12308" lon="5.56599">
        <ele>207.782104</ele>
        <time>2012-09-28T12:24:36Z</time>
      </trkpt>
      <trkpt lat="47.12358" lon="5.5651">
        <ele>209.224121</ele>
        <time>2012-09-28T12:24:51Z</time>
      </trkpt>
      <trkpt lat="47.12443" lon="5.56385">
        <ele>208.262817</ele>
        <time>2012-09-28T12:25:13Z</time>
      </trkpt>
      <trkpt lat="47.12454" lon="5.56356">
        <ele>207.782104</ele>
        <time>2012-09-28T12:25:17Z</time>
      </trkpt>
      <trkpt lat="47.12466" lon="5.56303">
        <ele>207.782104</ele>
        <time>2012-09-28T12:25:29Z</time>
      </trkpt>
      <trkpt lat="47.12464" lon="5.56303">
        <ele>206.820679</ele>
        <time>2012-09-28T12:25:45Z</time>
      </trkpt>
      <trkpt lat="47.12452" lon="5.5627">
        <ele>206.340088</ele>
        <time>2012-09-28T12:26:42Z</time>
      </trkpt>
      <trkpt lat="47.1243" lon="5.56228">
        <ele>205.378784</ele>
        <time>2012-09-28T12:26:49Z</time>
      </trkpt>
      <trkpt lat="47.12431" lon="5.56165">
        <ele>206.340088</ele>
        <time>2012-09-28T12:26:57Z</time>
      </trkpt>
      <trkpt lat="47.12455" lon="5.56153">
        <ele>207.301392</ele>
        <time>2012-09-28T12:27:02Z</time>
      </trkpt>
      <trkpt lat="47.12553" lon="5.5618">
        <ele>207.782104</ele>
        <time>2012-09-28T12:27:19Z</time>
      </trkpt>
      <trkpt lat="47.12644" lon="5.56182">
        <ele>207.301392</ele>
        <time>2012-09-28T12:27:33Z</time>
      </trkpt>
      <trkpt lat="47.12779" lon="5.5617">
        <ele>207.782104</ele>
        <time>2012-09-28T12:27:55Z</time>
      </trkpt>
      <trkpt lat="47.12813" lon="5.56167">
        <ele>209.704834</ele>
        <time>2012-09-28T12:28:02Z</time>
      </trkpt>
      <trkpt lat="47.12827" lon="5.56162">
        <ele>210.185425</ele>
        <time>2012-09-28T12:28:05Z</time>
      </trkpt>
      <trkpt lat="47.12846" lon="5.56159">
        <ele>210.666016</ele>
        <time>2012-09-28T12:28:09Z</time>
      </trkpt>
      <trkpt lat="47.12863" lon="5.5614">
        <ele>210.666016</ele>
        <time>2012-09-28T12:28:13Z</time>
      </trkpt>
      <trkpt lat="47.12869" lon="5.56126">
        <ele>210.666016</ele>
        <time>2012-09-28T12:28:15Z</time>
      </trkpt>
      <trkpt lat="47.1289" lon="5.56126">
        <ele>210.185425</ele>
        <time>2012-09-28T12:28:19Z</time>
      </trkpt>
      <trkpt lat="47.12914" lon="5.56158">
        <ele>210.185425</ele>
        <time>2012-09-28T12:28:24Z</time>
      </trkpt>
      <trkpt lat="47.12995" lon="5.56197">
        <ele>210.185425</ele>
        <time>2012-09-28T12:28:38Z</time>
      </trkpt>
      <trkpt lat="47.13115" lon="5.56241">
        <ele>213.069336</ele>
        <time>2012-09-28T12:28:59Z</time>
      </trkpt>
      <trkpt lat="47.13238" lon="5.56283">
        <ele>215.472656</ele>
        <time>2012-09-28T12:29:20Z</time>
      </trkpt>
      <trkpt lat="47.13362" lon="5.56299">
        <ele>215.472656</ele>
        <time>2012-09-28T12:29:41Z</time>
      </trkpt>
      <trkpt lat="47.13542" lon="5.56314">
        <ele>214.51123</ele>
        <time>2012-09-28T12:30:09Z</time>
      </trkpt>
      <trkpt lat="47.13695" lon="5.56339">
        <ele>212.588623</ele>
        <time>2012-09-28T12:30:32Z</time>
      </trkpt>
      <trkpt lat="47.13843" lon="5.5636">
        <ele>214.03064</ele>
        <time>2012-09-28T12:30:56Z</time>
      </trkpt>
      <trkpt lat="47.13946" lon="5.56383">
        <ele>214.991943</ele>
        <time>2012-09-28T12:31:13Z</time>
      </trkpt>
      <trkpt lat="47.14062" lon="5.5644">
        <ele>217.395386</ele>
        <time>2012-09-28T12:31:34Z</time>
      </trkpt>
      <trkpt lat="47.14211" lon="5.56479">
        <ele>219.798584</ele>
        <time>2012-09-28T12:32:01Z</time>
      </trkpt>
      <trkpt lat="47.14285" lon="5.56499">
        <ele>223.163208</ele>
        <time>2012-09-28T12:32:16Z</time>
      </trkpt>
      <trkpt lat="47.14358" lon="5.56509">
        <ele>226.047119</ele>
        <time>2012-09-28T12:32:31Z</time>
      </trkpt>
      <trkpt lat="47.14485" lon="5.56508">
        <ele>228.931152</ele>
        <time>2012-09-28T12:32:56Z</time>
      </trkpt>
      <trkpt lat="47.1465" lon="5.56513">
        <ele>227.969727</ele>
        <time>2012-09-28T12:33:26Z</time>
      </trkpt>
      <trkpt lat="47.14784" lon="5.56541">
        <ele>225.085938</ele>
        <time>2012-09-28T12:33:46Z</time>
      </trkpt>
      <trkpt lat="47.14901" lon="5.56577">
        <ele>226.527832</ele>
        <time>2012-09-28T12:34:07Z</time>
      </trkpt>
      <trkpt lat="47.15041" lon="5.56571">
        <ele>227.008545</ele>
        <time>2012-09-28T12:34:32Z</time>
      </trkpt>
      <trkpt lat="47.15166" lon="5.56598">
        <ele>226.527832</ele>
        <time>2012-09-28T12:34:53Z</time>
      </trkpt>
      <trkpt lat="47.15326" lon="5.56628">
        <ele>225.566528</ele>
        <time>2012-09-28T12:35:19Z</time>
      </trkpt>
      <trkpt lat="47.15522" lon="5.56652">
        <ele>223.643799</ele>
        <time>2012-09-28T12:35:49Z</time>
      </trkpt>
      <trkpt lat="47.1565" lon="5.56643">
        <ele>223.163208</ele>
        <time>2012-09-28T12:36:09Z</time>
      </trkpt>
      <trkpt lat="47.15749" lon="5.56644">
        <ele>226.527832</ele>
        <time>2012-09-28T12:36:27Z</time>
      </trkpt>
      <trkpt lat="47.15855" lon="5.56661">
        <ele>229.411743</ele>
        <time>2012-09-28T12:36:48Z</time>
      </trkpt>
      <trkpt lat="47.15982" lon="5.56666">
        <ele>229.892334</ele>
        <time>2012-09-28T12:37:12Z</time>
      </trkpt>
      <trkpt lat="47.16053" lon="5.56614">
        <ele>228.931152</ele>
        <time>2012-09-28T12:37:26Z</time>
      </trkpt>
      <trkpt lat="47.16112" lon="5.56532">
        <ele>226.047119</ele>
        <time>2012-09-28T12:37:39Z</time>
      </trkpt>
      <trkpt lat="47.16181" lon="5.5649">
        <ele>223.163208</ele>
        <time>2012-09-28T12:37:48Z</time>
      </trkpt>
      <trkpt lat="47.16246" lon="5.56466">
        <ele>220.279175</ele>
        <time>2012-09-28T12:37:56Z</time>
      </trkpt>
      <trkpt lat="47.1635" lon="5.5646">
        <ele>219.317993</ele>
        <time>2012-09-28T12:38:10Z</time>
      </trkpt>
      <trkpt lat="47.16356" lon="5.56461">
        <ele>219.317993</ele>
        <time>2012-09-28T12:38:11Z</time>
      </trkpt>
      <trkpt lat="47.16419" lon="5.56488">
        <ele>222.682495</ele>
        <time>2012-09-28T12:38:23Z</time>
      </trkpt>
      <trkpt lat="47.16423" lon="5.5649">
        <ele>223.163208</ele>
        <time>2012-09-28T12:38:24Z</time>
      </trkpt>
      <trkpt lat="47.16432" lon="5.56491">
        <ele>224.124512</ele>
        <time>2012-09-28T12:38:26Z</time>
      </trkpt>
      <trkpt lat="47.16455" lon="5.56482">
        <ele>224.124512</ele>
        <time>2012-09-28T12:38:31Z</time>
      </trkpt>
      <trkpt lat="47.16482" lon="5.5648">
        <ele>224.124512</ele>
        <time>2012-09-28T12:38:36Z</time>
      </trkpt>
      <trkpt lat="47.16554" lon="5.56512">
        <ele>227.008545</ele>
        <time>2012-09-28T12:38:52Z</time>
      </trkpt>
      <trkpt lat="47.1658" lon="5.56525">
        <ele>227.489136</ele>
        <time>2012-09-28T12:38:58Z</time>
      </trkpt>
      <trkpt lat="47.16633" lon="5.56529">
        <ele>228.931152</ele>
        <time>2012-09-28T12:39:10Z</time>
      </trkpt>
      <trkpt lat="47.1665" lon="5.56504">
        <ele>229.411743</ele>
        <time>2012-09-28T12:39:16Z</time>
      </trkpt>
      <trkpt lat="47.16702" lon="5.56387">
        <ele>228.450439</ele>
        <time>2012-09-28T12:39:33Z</time>
      </trkpt>
      <trkpt lat="47.16763" lon="5.56304">
        <ele>229.411743</ele>
        <time>2012-09-28T12:39:49Z</time>
      </trkpt>
      <trkpt lat="47.1685" lon="5.56251">
        <ele>232.776489</ele>
        <time>2012-09-28T12:40:10Z</time>
      </trkpt>
      <trkpt lat="47.16944" lon="5.56212">
        <ele>235.660278</ele>
        <time>2012-09-28T12:40:32Z</time>
      </trkpt>
      <trkpt lat="47.17003" lon="5.56165">
        <ele>238.063599</ele>
        <time>2012-09-28T12:40:47Z</time>
      </trkpt>
      <trkpt lat="47.1703" lon="5.56145">
        <ele>238.544312</ele>
        <time>2012-09-28T12:40:53Z</time>
      </trkpt>
      <trkpt lat="47.17098" lon="5.5606">
        <ele>240.947632</ele>
        <time>2012-09-28T12:41:11Z</time>
      </trkpt>
      <trkpt lat="47.17111" lon="5.56034">
        <ele>241.908936</ele>
        <time>2012-09-28T12:41:16Z</time>
      </trkpt>
      <trkpt lat="47.1716" lon="5.55997">
        <ele>245.273438</ele>
        <time>2012-09-28T12:41:31Z</time>
      </trkpt>
      <trkpt lat="47.17196" lon="5.5603">
        <ele>247.676758</ele>
        <time>2012-09-28T12:41:42Z</time>
      </trkpt>
      <trkpt lat="47.17226" lon="5.56073">
        <ele>250.0802</ele>
        <time>2012-09-28T12:41:53Z</time>
      </trkpt>
      <trkpt lat="47.17251" lon="5.56101">
        <ele>252.002808</ele>
        <time>2012-09-28T12:42:02Z</time>
      </trkpt>
      <trkpt lat="47.17286" lon="5.561">
        <ele>253.444702</ele>
        <time>2012-09-28T12:42:12Z</time>
      </trkpt>
      <trkpt lat="47.17292" lon="5.56041">
        <ele>256.328735</ele>
        <time>2012-09-28T12:42:25Z</time>
      </trkpt>
      <trkpt lat="47.17263" lon="5.55981">
        <ele>258.731934</ele>
        <time>2012-09-28T12:42:40Z</time>
      </trkpt>
      <trkpt lat="47.17229" lon="5.55909">
        <ele>263.057861</ele>
        <time>2012-09-28T12:42:57Z</time>
      </trkpt>
      <trkpt lat="47.172" lon="5.55838">
        <ele>264.980591</ele>
        <time>2012-09-28T12:43:12Z</time>
      </trkpt>
      <trkpt lat="47.1721" lon="5.55758">
        <ele>268.345093</ele>
        <time>2012-09-28T12:43:26Z</time>
      </trkpt>
      <trkpt lat="47.17234" lon="5.55676">
        <ele>271.229126</ele>
        <time>2012-09-28T12:43:42Z</time>
      </trkpt>
      <trkpt lat="47.17275" lon="5.55621">
        <ele>274.59375</ele>
        <time>2012-09-28T12:43:58Z</time>
      </trkpt>
      <trkpt lat="47.17324" lon="5.55581">
        <ele>277.958252</ele>
        <time>2012-09-28T12:44:15Z</time>
      </trkpt>
      <trkpt lat="47.17379" lon="5.55565">
        <ele>280.842407</ele>
        <time>2012-09-28T12:44:31Z</time>
      </trkpt>
      <trkpt lat="47.17429" lon="5.5554">
        <ele>284.206909</ele>
        <time>2012-09-28T12:44:46Z</time>
      </trkpt>
      <trkpt lat="47.1749" lon="5.55536">
        <ele>287.09082</ele>
        <time>2012-09-28T12:45:02Z</time>
      </trkpt>
      <trkpt lat="47.17548" lon="5.55554">
        <ele>290.455566</ele>
        <time>2012-09-28T12:45:18Z</time>
      </trkpt>
      <trkpt lat="47.17594" lon="5.5555">
        <ele>292.858765</ele>
        <time>2012-09-28T12:45:32Z</time>
      </trkpt>
      <trkpt lat="47.17604" lon="5.55491">
        <ele>295.261963</ele>
        <time>2012-09-28T12:45:44Z</time>
      </trkpt>
      <trkpt lat="47.17607" lon="5.55414">
        <ele>298.626709</ele>
        <time>2012-09-28T12:45:59Z</time>
      </trkpt>
      <trkpt lat="47.17609" lon="5.55334">
        <ele>301.51062</ele>
        <time>2012-09-28T12:46:14Z</time>
      </trkpt>
      <trkpt lat="47.17605" lon="5.55249">
        <ele>304.875244</ele>
        <time>2012-09-28T12:46:30Z</time>
      </trkpt>
      <trkpt lat="47.17594" lon="5.55161">
        <ele>307.759277</ele>
        <time>2012-09-28T12:46:46Z</time>
      </trkpt>
      <trkpt lat="47.17579" lon="5.55083">
        <ele>311.123779</ele>
        <time>2012-09-28T12:47:01Z</time>
      </trkpt>
      <trkpt lat="47.17563" lon="5.55008">
        <ele>314.007812</ele>
        <time>2012-09-28T12:47:15Z</time>
      </trkpt>
      <trkpt lat="47.17556" lon="5.54933">
        <ele>317.372437</ele>
        <time>2012-09-28T12:47:29Z</time>
      </trkpt>
      <trkpt lat="47.17568" lon="5.54846">
        <ele>320.256348</ele>
        <time>2012-09-28T12:47:44Z</time>
      </trkpt>
      <trkpt lat="47.17585" lon="5.54746">
        <ele>323.620972</ele>
        <time>2012-09-28T12:48:01Z</time>
      </trkpt>
      <trkpt lat="47.17603" lon="5.54665">
        <ele>326.504883</ele>
        <time>2012-09-28T12:48:16Z</time>
      </trkpt>
      <trkpt lat="47.17636" lon="5.54578">
        <ele>329.869507</ele>
        <time>2012-09-28T12:48:33Z</time>
      </trkpt>
      <trkpt lat="47.17673" lon="5.54494">
        <ele>332.75354</ele>
        <time>2012-09-28T12:48:50Z</time>
      </trkpt>
      <trkpt lat="47.17716" lon="5.5439">
        <ele>336.118164</ele>
        <time>2012-09-28T12:49:10Z</time>
      </trkpt>
      <trkpt lat="47.17757" lon="5.54289">
        <ele>338.521484</ele>
        <time>2012-09-28T12:49:29Z</time>
      </trkpt>
      <trkpt lat="47.1776" lon="5.54284">
        <ele>339.002075</ele>
        <time>2012-09-28T12:49:30Z</time>
      </trkpt>
      <trkpt lat="47.17808" lon="5.54174">
        <ele>342.366699</ele>
        <time>2012-09-28T12:49:51Z</time>
      </trkpt>
      <trkpt lat="47.1781" lon="5.54169">
        <ele>342.366699</ele>
        <time>2012-09-28T12:49:52Z</time>
      </trkpt>
      <trkpt lat="47.17831" lon="5.54093">
        <ele>345.731323</ele>
        <time>2012-09-28T12:50:06Z</time>
      </trkpt>
      <trkpt lat="47.17833" lon="5.54068">
        <ele>346.692627</ele>
        <time>2012-09-28T12:50:10Z</time>
      </trkpt>
      <trkpt lat="47.17833" lon="5.54043">
        <ele>347.653931</ele>
        <time>2012-09-28T12:50:14Z</time>
      </trkpt>
      <trkpt lat="47.17837" lon="5.53969">
        <ele>349.576538</ele>
        <time>2012-09-28T12:50:26Z</time>
      </trkpt>
      <trkpt lat="47.17845" lon="5.5389">
        <ele>352.460571</ele>
        <time>2012-09-28T12:50:39Z</time>
      </trkpt>
      <trkpt lat="47.17868" lon="5.53857">
        <ele>354.86377</ele>
        <time>2012-09-28T12:50:48Z</time>
      </trkpt>
      <trkpt lat="47.17886" lon="5.5386">
        <ele>355.825195</ele>
        <time>2012-09-28T12:50:53Z</time>
      </trkpt>
      <trkpt lat="47.17898" lon="5.53866">
        <ele>356.305786</ele>
        <time>2012-09-28T12:50:57Z</time>
      </trkpt>
      <trkpt lat="47.17933" lon="5.53893">
        <ele>358.708984</ele>
        <time>2012-09-28T12:51:10Z</time>
      </trkpt>
      <trkpt lat="47.17969" lon="5.53922">
        <ele>362.07373</ele>
        <time>2012-09-28T12:51:24Z</time>
      </trkpt>
      <trkpt lat="47.18015" lon="5.53961">
        <ele>364.957642</ele>
        <time>2012-09-28T12:51:39Z</time>
      </trkpt>
      <trkpt lat="47.18034" lon="5.53968">
        <ele>365.438354</ele>
        <time>2012-09-28T12:51:46Z</time>
      </trkpt>
      <trkpt lat="47.1805" lon="5.53976">
        <ele>365.918945</ele>
        <time>2012-09-28T12:51:55Z</time>
      </trkpt>
      <trkpt lat="47.18051" lon="5.53975">
        <ele>365.918945</ele>
        <time>2012-09-28T12:51:56Z</time>
      </trkpt>
      <trkpt lat="47.18069" lon="5.53967">
        <ele>365.918945</ele>
        <time>2012-09-28T12:52:05Z</time>
      </trkpt>
      <trkpt lat="47.18071" lon="5.53966">
        <ele>365.918945</ele>
        <time>2012-09-28T12:52:07Z</time>
      </trkpt>
      <trkpt lat="47.18049" lon="5.53975">
        <ele>364.957642</ele>
        <time>2012-09-28T12:52:20Z</time>
      </trkpt>
      <trkpt lat="47.18042" lon="5.53977">
        <ele>364.957642</ele>
        <time>2012-09-28T12:52:23Z</time>
      </trkpt>
      <trkpt lat="47.18043" lon="5.53986">
        <ele>365.438354</ele>
        <time>2012-09-28T12:52:28Z</time>
      </trkpt>
      <trkpt lat="47.18047" lon="5.53989">
        <ele>365.438354</ele>
        <time>2012-09-28T12:52:31Z</time>
      </trkpt>
      <trkpt lat="47.18052" lon="5.53988">
        <ele>360.631714</ele>
        <time>2012-09-28T12:52:36Z</time>
      </trkpt>
      <trkpt lat="47.18052" lon="5.53988">
        <ele>366.399536</ele>
        <time>2012-09-28T12:52:37Z</time>
      </trkpt>
      <trkpt lat="47.18052" lon="5.53993">
        <ele>366.399536</ele>
        <time>2012-09-28T12:54:33Z</time>
      </trkpt>
      <trkpt lat="47.18055" lon="5.53987">
        <ele>366.399536</ele>
        <time>2012-09-28T12:54:40Z</time>
      </trkpt>
      <trkpt lat="47.18066" lon="5.53978">
        <ele>366.880249</ele>
        <time>2012-09-28T12:54:58Z</time>
      </trkpt>
      <trkpt lat="47.18069" lon="5.53977">
        <ele>366.399536</ele>
        <time>2012-09-28T12:55:00Z</time>
      </trkpt>
      <trkpt lat="47.18071" lon="5.53968">
        <ele>366.399536</ele>
        <time>2012-09-28T12:55:18Z</time>
      </trkpt>
      <trkpt lat="47.18072" lon="5.5397">
        <ele>366.880249</ele>
        <time>2012-09-28T13:00:20Z</time>
      </trkpt>
      <trkpt lat="47.18076" lon="5.53964">
        <ele>366.880249</ele>
        <time>2012-09-28T13:00:24Z</time>
      </trkpt>
      <trkpt lat="47.18121" lon="5.53928">
        <ele>365.918945</ele>
        <time>2012-09-28T13:00:38Z</time>
      </trkpt>
      <trkpt lat="47.18139" lon="5.53919">
        <ele>364.957642</ele>
        <time>2012-09-28T13:00:42Z</time>
      </trkpt>
      <trkpt lat="47.18159" lon="5.53913">
        <ele>364.957642</ele>
        <time>2012-09-28T13:00:46Z</time>
      </trkpt>
      <trkpt lat="47.18269" lon="5.53896">
        <ele>362.07373</ele>
        <time>2012-09-28T13:01:02Z</time>
      </trkpt>
      <trkpt lat="47.18348" lon="5.5388">
        <ele>359.189697</ele>
        <time>2012-09-28T13:01:11Z</time>
      </trkpt>
      <trkpt lat="47.18434" lon="5.53862">
        <ele>355.825195</ele>
        <time>2012-09-28T13:01:20Z</time>
      </trkpt>
      <trkpt lat="47.18563" lon="5.53836">
        <ele>351.979858</ele>
        <time>2012-09-28T13:01:33Z</time>
      </trkpt>
      <trkpt lat="47.18659" lon="5.53821">
        <ele>351.979858</ele>
        <time>2012-09-28T13:01:45Z</time>
      </trkpt>
      <trkpt lat="47.18747" lon="5.53816">
        <ele>353.421875</ele>
        <time>2012-09-28T13:02:00Z</time>
      </trkpt>
      <trkpt lat="47.18815" lon="5.5381">
        <ele>353.421875</ele>
        <time>2012-09-28T13:02:13Z</time>
      </trkpt>
      <trkpt lat="47.1891" lon="5.53787">
        <ele>350.057251</ele>
        <time>2012-09-28T13:02:27Z</time>
      </trkpt>
      <trkpt lat="47.18935" lon="5.53785">
        <ele>349.576538</ele>
        <time>2012-09-28T13:02:30Z</time>
      </trkpt>
      <trkpt lat="47.18962" lon="5.53788">
        <ele>349.095825</ele>
        <time>2012-09-28T13:02:33Z</time>
      </trkpt>
      <trkpt lat="47.19064" lon="5.53839">
        <ele>345.731323</ele>
        <time>2012-09-28T13:02:45Z</time>
      </trkpt>
      <trkpt lat="47.19126" lon="5.53863">
        <ele>343.327881</ele>
        <time>2012-09-28T13:02:52Z</time>
      </trkpt>
      <trkpt lat="47.19186" lon="5.53821">
        <ele>339.963379</ele>
        <time>2012-09-28T13:02:59Z</time>
      </trkpt>
      <trkpt lat="47.19202" lon="5.53737">
        <ele>336.598877</ele>
        <time>2012-09-28T13:03:05Z</time>
      </trkpt>
      <trkpt lat="47.19181" lon="5.5361">
        <ele>332.75354</ele>
        <time>2012-09-28T13:03:13Z</time>
      </trkpt>
      <trkpt lat="47.19171" lon="5.53523">
        <ele>329.388916</ele>
        <time>2012-09-28T13:03:18Z</time>
      </trkpt>
      <trkpt lat="47.19171" lon="5.53434">
        <ele>325.543579</ele>
        <time>2012-09-28T13:03:23Z</time>
      </trkpt>
      <trkpt lat="47.19171" lon="5.53419">
        <ele>325.543579</ele>
        <time>2012-09-28T13:03:24Z</time>
      </trkpt>
      <trkpt lat="47.1917" lon="5.53404">
        <ele>325.062988</ele>
        <time>2012-09-28T13:03:25Z</time>
      </trkpt>
      <trkpt lat="47.19199" lon="5.53338">
        <ele>320.737061</ele>
        <time>2012-09-28T13:03:32Z</time>
      </trkpt>
      <trkpt lat="47.19245" lon="5.53345">
        <ele>318.333618</ele>
        <time>2012-09-28T13:03:37Z</time>
      </trkpt>
      <trkpt lat="47.19263" lon="5.53352">
        <ele>317.372437</ele>
        <time>2012-09-28T13:03:39Z</time>
      </trkpt>
      <trkpt lat="47.1935" lon="5.53388">
        <ele>314.007812</ele>
        <time>2012-09-28T13:03:48Z</time>
      </trkpt>
      <trkpt lat="47.19466" lon="5.53435">
        <ele>310.643066</ele>
        <time>2012-09-28T13:04:00Z</time>
      </trkpt>
      <trkpt lat="47.19533" lon="5.53457">
        <ele>307.759277</ele>
        <time>2012-09-28T13:04:07Z</time>
      </trkpt>
      <trkpt lat="47.19584" lon="5.53467">
        <ele>304.394653</ele>
        <time>2012-09-28T13:04:12Z</time>
      </trkpt>
      <trkpt lat="47.19616" lon="5.5347">
        <ele>302.471924</ele>
        <time>2012-09-28T13:04:15Z</time>
      </trkpt>
      <trkpt lat="47.19658" lon="5.53451">
        <ele>300.068726</ele>
        <time>2012-09-28T13:04:19Z</time>
      </trkpt>
      <trkpt lat="47.19707" lon="5.53399">
        <ele>294.781372</ele>
        <time>2012-09-28T13:04:24Z</time>
      </trkpt>
      <trkpt lat="47.19724" lon="5.53378">
        <ele>293.339355</ele>
        <time>2012-09-28T13:04:26Z</time>
      </trkpt>
      <trkpt lat="47.19747" lon="5.53306">
        <ele>289.01355</ele>
        <time>2012-09-28T13:04:31Z</time>
      </trkpt>
      <trkpt lat="47.19751" lon="5.5329">
        <ele>288.532959</ele>
        <time>2012-09-28T13:04:32Z</time>
      </trkpt>
      <trkpt lat="47.1976" lon="5.53199">
        <ele>282.284302</ele>
        <time>2012-09-28T13:04:37Z</time>
      </trkpt>
      <trkpt lat="47.19755" lon="5.53137">
        <ele>278.438965</ele>
        <time>2012-09-28T13:04:40Z</time>
      </trkpt>
      <trkpt lat="47.19766" lon="5.53058">
        <ele>274.59375</ele>
        <time>2012-09-28T13:04:44Z</time>
      </trkpt>
      <trkpt lat="47.19775" lon="5.53005">
        <ele>273.151855</ele>
        <time>2012-09-28T13:04:47Z</time>
      </trkpt>
      <trkpt lat="47.19774" lon="5.52952">
        <ele>272.19043</ele>
        <time>2012-09-28T13:04:50Z</time>
      </trkpt>
      <trkpt lat="47.19771" lon="5.52918">
        <ele>271.229126</ele>
        <time>2012-09-28T13:04:52Z</time>
      </trkpt>
      <trkpt lat="47.19734" lon="5.52805">
        <ele>269.306519</ele>
        <time>2012-09-28T13:05:00Z</time>
      </trkpt>
      <trkpt lat="47.19721" lon="5.52753">
        <ele>268.345093</ele>
        <time>2012-09-28T13:05:04Z</time>
      </trkpt>
      <trkpt lat="47.19726" lon="5.52682">
        <ele>265.461304</ele>
        <time>2012-09-28T13:05:09Z</time>
      </trkpt>
      <trkpt lat="47.19774" lon="5.52549">
        <ele>261.135254</ele>
        <time>2012-09-28T13:05:20Z</time>
      </trkpt>
      <trkpt lat="47.19777" lon="5.52541">
        <ele>261.135254</ele>
        <time>2012-09-28T13:05:21Z</time>
      </trkpt>
      <trkpt lat="47.19808" lon="5.52527">
        <ele>260.654541</ele>
        <time>2012-09-28T13:05:27Z</time>
      </trkpt>
      <trkpt lat="47.19875" lon="5.52579">
        <ele>258.251343</ele>
        <time>2012-09-28T13:05:42Z</time>
      </trkpt>
      <trkpt lat="47.19888" lon="5.52579">
        <ele>257.290039</ele>
        <time>2012-09-28T13:05:47Z</time>
      </trkpt>
      <trkpt lat="47.19883" lon="5.52558">
        <ele>256.328735</ele>
        <time>2012-09-28T13:05:51Z</time>
      </trkpt>
      <trkpt lat="47.1984" lon="5.52485">
        <ele>252.963989</ele>
        <time>2012-09-28T13:06:00Z</time>
      </trkpt>
      <trkpt lat="47.19823" lon="5.52455">
        <ele>251.522095</ele>
        <time>2012-09-28T13:06:03Z</time>
      </trkpt>
      <trkpt lat="47.19812" lon="5.52437">
        <ele>251.041382</ele>
        <time>2012-09-28T13:06:05Z</time>
      </trkpt>
      <trkpt lat="47.19758" lon="5.52382">
        <ele>246.715454</ele>
        <time>2012-09-28T13:06:13Z</time>
      </trkpt>
      <trkpt lat="47.19751" lon="5.52377">
        <ele>246.715454</ele>
        <time>2012-09-28T13:06:14Z</time>
      </trkpt>
      <trkpt lat="47.19719" lon="5.52348">
        <ele>244.792847</ele>
        <time>2012-09-28T13:06:21Z</time>
      </trkpt>
      <trkpt lat="47.19687" lon="5.52344">
        <ele>242.870239</ele>
        <time>2012-09-28T13:06:30Z</time>
      </trkpt>
      <trkpt lat="47.1966" lon="5.52354">
        <ele>242.389648</ele>
        <time>2012-09-28T13:06:35Z</time>
      </trkpt>
      <trkpt lat="47.19638" lon="5.52375">
        <ele>241.908936</ele>
        <time>2012-09-28T13:06:41Z</time>
      </trkpt>
      <trkpt lat="47.19609" lon="5.52368">
        <ele>241.428223</ele>
        <time>2012-09-28T13:06:48Z</time>
      </trkpt>
      <trkpt lat="47.19573" lon="5.52295">
        <ele>239.986206</ele>
        <time>2012-09-28T13:06:59Z</time>
      </trkpt>
      <trkpt lat="47.19567" lon="5.52259">
        <ele>239.986206</ele>
        <time>2012-09-28T13:07:04Z</time>
      </trkpt>
      <trkpt lat="47.19594" lon="5.52145">
        <ele>236.621704</ele>
        <time>2012-09-28T13:07:16Z</time>
      </trkpt>
      <trkpt lat="47.19638" lon="5.51961">
        <ele>233.737671</ele>
        <time>2012-09-28T13:07:34Z</time>
      </trkpt>
      <trkpt lat="47.19686" lon="5.51776">
        <ele>233.737671</ele>
        <time>2012-09-28T13:07:52Z</time>
      </trkpt>
      <trkpt lat="47.19718" lon="5.51647">
        <ele>234.218384</ele>
        <time>2012-09-28T13:08:10Z</time>
      </trkpt>
      <trkpt lat="47.19758" lon="5.51562">
        <ele>235.660278</ele>
        <time>2012-09-28T13:08:27Z</time>
      </trkpt>
      <trkpt lat="47.19769" lon="5.51537">
        <ele>236.140991</ele>
        <time>2012-09-28T13:08:32Z</time>
      </trkpt>
      <trkpt lat="47.19816" lon="5.51432">
        <ele>237.582886</ele>
        <time>2012-09-28T13:08:49Z</time>
      </trkpt>
      <trkpt lat="47.19828" lon="5.51325">
        <ele>239.024902</ele>
        <time>2012-09-28T13:09:03Z</time>
      </trkpt>
      <trkpt lat="47.19828" lon="5.51303">
        <ele>239.505493</ele>
        <time>2012-09-28T13:09:06Z</time>
      </trkpt>
      <trkpt lat="47.19825" lon="5.5116">
        <ele>236.621704</ele>
        <time>2012-09-28T13:09:22Z</time>
      </trkpt>
      <trkpt lat="47.19826" lon="5.51068">
        <ele>233.25708</ele>
        <time>2012-09-28T13:09:29Z</time>
      </trkpt>
      <trkpt lat="47.1983" lon="5.51024">
        <ele>231.814941</ele>
        <time>2012-09-28T13:09:32Z</time>
      </trkpt>
      <trkpt lat="47.19843" lon="5.50916">
        <ele>228.931152</ele>
        <time>2012-09-28T13:09:39Z</time>
      </trkpt>
      <trkpt lat="47.19849" lon="5.50854">
        <ele>225.566528</ele>
        <time>2012-09-28T13:09:43Z</time>
      </trkpt>
      <trkpt lat="47.1985" lon="5.50839">
        <ele>225.085938</ele>
        <time>2012-09-28T13:09:44Z</time>
      </trkpt>
      <trkpt lat="47.19867" lon="5.50677">
        <ele>223.643799</ele>
        <time>2012-09-28T13:09:57Z</time>
      </trkpt>
      <trkpt lat="47.19885" lon="5.50486">
        <ele>222.201782</ele>
        <time>2012-09-28T13:10:17Z</time>
      </trkpt>
      <trkpt lat="47.19902" lon="5.50279">
        <ele>219.317993</ele>
        <time>2012-09-28T13:10:37Z</time>
      </trkpt>
      <trkpt lat="47.19897" lon="5.50077">
        <ele>217.395386</ele>
        <time>2012-09-28T13:10:57Z</time>
      </trkpt>
      <trkpt lat="47.19896" lon="5.50041">
        <ele>216.914673</ele>
        <time>2012-09-28T13:11:01Z</time>
      </trkpt>
      <trkpt lat="47.19894" lon="5.49917">
        <ele>216.914673</ele>
        <time>2012-09-28T13:11:15Z</time>
      </trkpt>
      <trkpt lat="47.19889" lon="5.49701">
        <ele>216.43396</ele>
        <time>2012-09-28T13:11:36Z</time>
      </trkpt>
      <trkpt lat="47.19882" lon="5.49499">
        <ele>217.875977</ele>
        <time>2012-09-28T13:11:58Z</time>
      </trkpt>
      <trkpt lat="47.19876" lon="5.49307">
        <ele>214.991943</ele>
        <time>2012-09-28T13:12:17Z</time>
      </trkpt>
      <trkpt lat="47.19873" lon="5.4916">
        <ele>211.627441</ele>
        <time>2012-09-28T13:12:31Z</time>
      </trkpt>
      <trkpt lat="47.19869" lon="5.49052">
        <ele>211.146729</ele>
        <time>2012-09-28T13:12:43Z</time>
      </trkpt>
      <trkpt lat="47.19856" lon="5.49013">
        <ele>211.146729</ele>
        <time>2012-09-28T13:12:48Z</time>
      </trkpt>
      <trkpt lat="47.19768" lon="5.48858">
        <ele>211.146729</ele>
        <time>2012-09-28T13:13:09Z</time>
      </trkpt>
      <trkpt lat="47.19671" lon="5.48687">
        <ele>213.550049</ele>
        <time>2012-09-28T13:13:34Z</time>
      </trkpt>
      <trkpt lat="47.19588" lon="5.48543">
        <ele>215.953247</ele>
        <time>2012-09-28T13:13:56Z</time>
      </trkpt>
      <trkpt lat="47.19499" lon="5.48388">
        <ele>217.395386</ele>
        <time>2012-09-28T13:14:18Z</time>
      </trkpt>
      <trkpt lat="47.19417" lon="5.48246">
        <ele>218.356567</ele>
        <time>2012-09-28T13:14:40Z</time>
      </trkpt>
      <trkpt lat="47.19354" lon="5.48161">
        <ele>217.875977</ele>
        <time>2012-09-28T13:14:54Z</time>
      </trkpt>
      <trkpt lat="47.1935" lon="5.48157">
        <ele>217.875977</ele>
        <time>2012-09-28T13:14:55Z</time>
      </trkpt>
      <trkpt lat="47.19348" lon="5.48106">
        <ele>216.43396</ele>
        <time>2012-09-28T13:15:02Z</time>
      </trkpt>
      <trkpt lat="47.19381" lon="5.48031">
        <ele>214.991943</ele>
        <time>2012-09-28T13:15:11Z</time>
      </trkpt>
      <trkpt lat="47.19376" lon="5.47986">
        <ele>214.991943</ele>
        <time>2012-09-28T13:15:17Z</time>
      </trkpt>
      <trkpt lat="47.19354" lon="5.47964">
        <ele>215.472656</ele>
        <time>2012-09-28T13:15:22Z</time>
      </trkpt>
      <trkpt lat="47.1934" lon="5.47931">
        <ele>216.43396</ele>
        <time>2012-09-28T13:15:27Z</time>
      </trkpt>
      <trkpt lat="47.1933" lon="5.47863">
        <ele>217.875977</ele>
        <time>2012-09-28T13:15:35Z</time>
      </trkpt>
      <trkpt lat="47.19352" lon="5.47708">
        <ele>220.279175</ele>
        <time>2012-09-28T13:15:51Z</time>
      </trkpt>
      <trkpt lat="47.19386" lon="5.47524">
        <ele>220.279175</ele>
        <time>2012-09-28T13:16:09Z</time>
      </trkpt>
      <trkpt lat="47.19419" lon="5.47375">
        <ele>220.279175</ele>
        <time>2012-09-28T13:16:25Z</time>
      </trkpt>
      <trkpt lat="47.19447" lon="5.47181">
        <ele>219.317993</ele>
        <time>2012-09-28T13:16:45Z</time>
      </trkpt>
      <trkpt lat="47.19467" lon="5.47014">
        <ele>217.875977</ele>
        <time>2012-09-28T13:17:02Z</time>
      </trkpt>
      <trkpt lat="47.19506" lon="5.46827">
        <ele>215.472656</ele>
        <time>2012-09-28T13:17:25Z</time>
      </trkpt>
      <trkpt lat="47.19518" lon="5.4665">
        <ele>214.991943</ele>
        <time>2012-09-28T13:17:46Z</time>
      </trkpt>
      <trkpt lat="47.19543" lon="5.46502">
        <ele>214.991943</ele>
        <time>2012-09-28T13:18:03Z</time>
      </trkpt>
      <trkpt lat="47.19604" lon="5.463">
        <ele>213.550049</ele>
        <time>2012-09-28T13:18:27Z</time>
      </trkpt>
      <trkpt lat="47.19628" lon="5.46125">
        <ele>213.550049</ele>
        <time>2012-09-28T13:18:47Z</time>
      </trkpt>
      <trkpt lat="47.19641" lon="5.4594">
        <ele>212.108032</ele>
        <time>2012-09-28T13:19:08Z</time>
      </trkpt>
      <trkpt lat="47.19616" lon="5.45824">
        <ele>210.185425</ele>
        <time>2012-09-28T13:19:21Z</time>
      </trkpt>
      <trkpt lat="47.19541" lon="5.45643">
        <ele>207.782104</ele>
        <time>2012-09-28T13:19:43Z</time>
      </trkpt>
      <trkpt lat="47.19494" lon="5.45533">
        <ele>204.898071</ele>
        <time>2012-09-28T13:19:55Z</time>
      </trkpt>
      <trkpt lat="47.19465" lon="5.45463">
        <ele>202.975464</ele>
        <time>2012-09-28T13:20:02Z</time>
      </trkpt>
      <trkpt lat="47.19443" lon="5.45412">
        <ele>201.052856</ele>
        <time>2012-09-28T13:20:07Z</time>
      </trkpt>
      <trkpt lat="47.19387" lon="5.45248">
        <ele>199.130127</ele>
        <time>2012-09-28T13:20:23Z</time>
      </trkpt>
      <trkpt lat="47.19375" lon="5.45107">
        <ele>202.494873</ele>
        <time>2012-09-28T13:20:40Z</time>
      </trkpt>
      <trkpt lat="47.19366" lon="5.45017">
        <ele>205.859497</ele>
        <time>2012-09-28T13:20:52Z</time>
      </trkpt>
      <trkpt lat="47.19365" lon="5.4501">
        <ele>206.340088</ele>
        <time>2012-09-28T13:20:53Z</time>
      </trkpt>
      <trkpt lat="47.19355" lon="5.44928">
        <ele>209.224121</ele>
        <time>2012-09-28T13:21:05Z</time>
      </trkpt>
      <trkpt lat="47.19349" lon="5.44862">
        <ele>211.146729</ele>
        <time>2012-09-28T13:21:15Z</time>
      </trkpt>
      <trkpt lat="47.19344" lon="5.44838">
        <ele>211.627441</ele>
        <time>2012-09-28T13:21:18Z</time>
      </trkpt>
      <trkpt lat="47.19344" lon="5.44815">
        <ele>212.108032</ele>
        <time>2012-09-28T13:21:21Z</time>
      </trkpt>
      <trkpt lat="47.19329" lon="5.44662">
        <ele>211.627441</ele>
        <time>2012-09-28T13:21:37Z</time>
      </trkpt>
      <trkpt lat="47.19306" lon="5.4447">
        <ele>210.185425</ele>
        <time>2012-09-28T13:21:55Z</time>
      </trkpt>
      <trkpt lat="47.19289" lon="5.44298">
        <ele>210.666016</ele>
        <time>2012-09-28T13:22:13Z</time>
      </trkpt>
      <trkpt lat="47.19274" lon="5.44132">
        <ele>210.666016</ele>
        <time>2012-09-28T13:22:28Z</time>
      </trkpt>
      <trkpt lat="47.19269" lon="5.43963">
        <ele>210.185425</ele>
        <time>2012-09-28T13:22:43Z</time>
      </trkpt>
      <trkpt lat="47.19274" lon="5.43782">
        <ele>206.340088</ele>
        <time>2012-09-28T13:22:58Z</time>
      </trkpt>
      <trkpt lat="47.19285" lon="5.43573">
        <ele>204.898071</ele>
        <time>2012-09-28T13:23:14Z</time>
      </trkpt>
      <trkpt lat="47.19287" lon="5.43548">
        <ele>204.898071</ele>
        <time>2012-09-28T13:23:16Z</time>
      </trkpt>
      <trkpt lat="47.19305" lon="5.43433">
        <ele>205.859497</ele>
        <time>2012-09-28T13:23:25Z</time>
      </trkpt>
      <trkpt lat="47.19338" lon="5.43245">
        <ele>205.378784</ele>
        <time>2012-09-28T13:23:41Z</time>
      </trkpt>
      <trkpt lat="47.1937" lon="5.4311">
        <ele>203.456177</ele>
        <time>2012-09-28T13:23:56Z</time>
      </trkpt>
      <trkpt lat="47.19394" lon="5.4301">
        <ele>200.091675</ele>
        <time>2012-09-28T13:24:05Z</time>
      </trkpt>
      <trkpt lat="47.19432" lon="5.42873">
        <ele>197.20752</ele>
        <time>2012-09-28T13:24:17Z</time>
      </trkpt>
      <trkpt lat="47.19467" lon="5.42742">
        <ele>193.843018</ele>
        <time>2012-09-28T13:24:28Z</time>
      </trkpt>
      <trkpt lat="47.195" lon="5.42574">
        <ele>192.401123</ele>
        <time>2012-09-28T13:24:44Z</time>
      </trkpt>
      <trkpt lat="47.19514" lon="5.42453">
        <ele>191.439575</ele>
        <time>2012-09-28T13:25:01Z</time>
      </trkpt>
      <trkpt lat="47.1952" lon="5.424">
        <ele>190.958984</ele>
        <time>2012-09-28T13:25:15Z</time>
      </trkpt>
      <trkpt lat="47.19528" lon="5.42341">
        <ele>190.958984</ele>
        <time>2012-09-28T13:25:28Z</time>
      </trkpt>
      <trkpt lat="47.19544" lon="5.42212">
        <ele>190.958984</ele>
        <time>2012-09-28T13:25:51Z</time>
      </trkpt>
      <trkpt lat="47.19561" lon="5.42088">
        <ele>190.958984</ele>
        <time>2012-09-28T13:26:07Z</time>
      </trkpt>
      <trkpt lat="47.19589" lon="5.41857">
        <ele>190.478394</ele>
        <time>2012-09-28T13:26:31Z</time>
      </trkpt>
      <trkpt lat="47.19621" lon="5.41608">
        <ele>189.516968</ele>
        <time>2012-09-28T13:26:57Z</time>
      </trkpt>
      <trkpt lat="47.19647" lon="5.41394">
        <ele>189.036377</ele>
        <time>2012-09-28T13:27:20Z</time>
      </trkpt>
      <trkpt lat="47.1967" lon="5.4118">
        <ele>189.516968</ele>
        <time>2012-09-28T13:27:43Z</time>
      </trkpt>
      <trkpt lat="47.19672" lon="5.41124">
        <ele>189.036377</ele>
        <time>2012-09-28T13:27:49Z</time>
      </trkpt>
      <trkpt lat="47.19663" lon="5.4109">
        <ele>189.036377</ele>
        <time>2012-09-28T13:27:53Z</time>
      </trkpt>
      <trkpt lat="47.1961" lon="5.40935">
        <ele>189.036377</ele>
        <time>2012-09-28T13:28:11Z</time>
      </trkpt>
      <trkpt lat="47.19598" lon="5.40853">
        <ele>189.036377</ele>
        <time>2012-09-28T13:28:20Z</time>
      </trkpt>
      <trkpt lat="47.19564" lon="5.40764">
        <ele>188.555786</ele>
        <time>2012-09-28T13:28:31Z</time>
      </trkpt>
      <trkpt lat="47.19561" lon="5.4067">
        <ele>188.555786</ele>
        <time>2012-09-28T13:28:41Z</time>
      </trkpt>
      <trkpt lat="47.19595" lon="5.40516">
        <ele>188.555786</ele>
        <time>2012-09-28T13:28:59Z</time>
      </trkpt>
      <trkpt lat="47.19595" lon="5.40379">
        <ele>188.555786</ele>
        <time>2012-09-28T13:29:13Z</time>
      </trkpt>
      <trkpt lat="47.19625" lon="5.40237">
        <ele>188.555786</ele>
        <time>2012-09-28T13:29:29Z</time>
      </trkpt>
      <trkpt lat="47.19636" lon="5.40084">
        <ele>188.075073</ele>
        <time>2012-09-28T13:29:45Z</time>
      </trkpt>
      <trkpt lat="47.19604" lon="5.39928">
        <ele>188.075073</ele>
        <time>2012-09-28T13:30:02Z</time>
      </trkpt>
      <trkpt lat="47.19537" lon="5.39662">
        <ele>189.036377</ele>
        <time>2012-09-28T13:30:32Z</time>
      </trkpt>
      <trkpt lat="47.19497" lon="5.39508">
        <ele>189.036377</ele>
        <time>2012-09-28T13:30:50Z</time>
      </trkpt>
      <trkpt lat="47.19489" lon="5.39435">
        <ele>189.036377</ele>
        <time>2012-09-28T13:30:58Z</time>
      </trkpt>
      <trkpt lat="47.19445" lon="5.39392">
        <ele>189.036377</ele>
        <time>2012-09-28T13:31:07Z</time>
      </trkpt>
      <trkpt lat="47.19389" lon="5.3939">
        <ele>187.59436</ele>
        <time>2012-09-28T13:31:16Z</time>
      </trkpt>
      <trkpt lat="47.19373" lon="5.39367">
        <ele>187.59436</ele>
        <time>2012-09-28T13:31:22Z</time>
      </trkpt>
      <trkpt lat="47.19374" lon="5.39337">
        <ele>187.11377</ele>
        <time>2012-09-28T13:31:33Z</time>
      </trkpt>
      <trkpt lat="47.19379" lon="5.39301">
        <ele>187.59436</ele>
        <time>2012-09-28T13:34:23Z</time>
      </trkpt>
      <trkpt lat="47.19388" lon="5.39205">
        <ele>188.075073</ele>
        <time>2012-09-28T13:34:39Z</time>
      </trkpt>
      <trkpt lat="47.1941" lon="5.39064">
        <ele>189.036377</ele>
        <time>2012-09-28T13:35:00Z</time>
      </trkpt>
      <trkpt lat="47.1942" lon="5.3904">
        <ele>188.555786</ele>
        <time>2012-09-28T13:35:11Z</time>
      </trkpt>
      <trkpt lat="47.19419" lon="5.39031">
        <ele>189.036377</ele>
        <time>2012-09-28T13:35:14Z</time>
      </trkpt>
      <trkpt lat="47.19399" lon="5.39018">
        <ele>189.516968</ele>
        <time>2012-09-28T13:35:20Z</time>
      </trkpt>
      <trkpt lat="47.19306" lon="5.3896">
        <ele>189.036377</ele>
        <time>2012-09-28T13:35:38Z</time>
      </trkpt>
      <trkpt lat="47.19279" lon="5.38945">
        <ele>188.555786</ele>
        <time>2012-09-28T13:35:44Z</time>
      </trkpt>
      <trkpt lat="47.19265" lon="5.38913">
        <ele>187.59436</ele>
        <time>2012-09-28T13:35:50Z</time>
      </trkpt>
      <trkpt lat="47.19277" lon="5.38802">
        <ele>188.555786</ele>
        <time>2012-09-28T13:36:04Z</time>
      </trkpt>
      <trkpt lat="47.19308" lon="5.387">
        <ele>187.59436</ele>
        <time>2012-09-28T13:36:18Z</time>
      </trkpt>
      <trkpt lat="47.19313" lon="5.38684">
        <ele>187.59436</ele>
        <time>2012-09-28T13:36:20Z</time>
      </trkpt>
      <trkpt lat="47.19352" lon="5.3859">
        <ele>186.152466</ele>
        <time>2012-09-28T13:36:33Z</time>
      </trkpt>
      <trkpt lat="47.19401" lon="5.38461">
        <ele>186.633179</ele>
        <time>2012-09-28T13:36:49Z</time>
      </trkpt>
      <trkpt lat="47.19423" lon="5.38392">
        <ele>187.11377</ele>
        <time>2012-09-28T13:37:01Z</time>
      </trkpt>
      <trkpt lat="47.1943" lon="5.38361">
        <ele>188.555786</ele>
        <time>2012-09-28T13:37:14Z</time>
      </trkpt>
      <trkpt lat="47.19454" lon="5.38301">
        <ele>189.997681</ele>
        <time>2012-09-28T13:37:28Z</time>
      </trkpt>
      <trkpt lat="47.19501" lon="5.38167">
        <ele>189.036377</ele>
        <time>2012-09-28T13:37:49Z</time>
      </trkpt>
      <trkpt lat="47.19514" lon="5.3813">
        <ele>188.555786</ele>
        <time>2012-09-28T13:37:54Z</time>
      </trkpt>
      <trkpt lat="47.19527" lon="5.38047">
        <ele>187.59436</ele>
        <time>2012-09-28T13:38:05Z</time>
      </trkpt>
      <trkpt lat="47.19526" lon="5.38038">
        <ele>187.59436</ele>
        <time>2012-09-28T13:38:07Z</time>
      </trkpt>
      <trkpt lat="47.19494" lon="5.38018">
        <ele>186.633179</ele>
        <time>2012-09-28T13:38:16Z</time>
      </trkpt>
      <trkpt lat="47.19485" lon="5.37996">
        <ele>185.671753</ele>
        <time>2012-09-28T13:38:20Z</time>
      </trkpt>
      <trkpt lat="47.19456" lon="5.3786">
        <ele>184.710571</ele>
        <time>2012-09-28T13:38:35Z</time>
      </trkpt>
      <trkpt lat="47.19421" lon="5.37725">
        <ele>184.710571</ele>
        <time>2012-09-28T13:38:51Z</time>
      </trkpt>
      <trkpt lat="47.1942" lon="5.37687">
        <ele>185.191162</ele>
        <time>2012-09-28T13:38:55Z</time>
      </trkpt>
      <trkpt lat="47.19434" lon="5.37594">
        <ele>184.710571</ele>
        <time>2012-09-28T13:39:05Z</time>
      </trkpt>
      <trkpt lat="47.19422" lon="5.37542">
        <ele>184.710571</ele>
        <time>2012-09-28T13:39:11Z</time>
      </trkpt>
      <trkpt lat="47.19414" lon="5.37528">
        <ele>184.229858</ele>
        <time>2012-09-28T13:39:13Z</time>
      </trkpt>
      <trkpt lat="47.19394" lon="5.37503">
        <ele>184.229858</ele>
        <time>2012-09-28T13:39:17Z</time>
      </trkpt>
      <trkpt lat="47.1935" lon="5.37456">
        <ele>184.229858</ele>
        <time>2012-09-28T13:39:25Z</time>
      </trkpt>
      <trkpt lat="47.19283" lon="5.37325">
        <ele>184.710571</ele>
        <time>2012-09-28T13:39:42Z</time>
      </trkpt>
      <trkpt lat="47.19211" lon="5.37119">
        <ele>183.749023</ele>
        <time>2012-09-28T13:40:05Z</time>
      </trkpt>
      <trkpt lat="47.19132" lon="5.36893">
        <ele>184.229858</ele>
        <time>2012-09-28T13:40:30Z</time>
      </trkpt>
      <trkpt lat="47.19054" lon="5.3667">
        <ele>184.229858</ele>
        <time>2012-09-28T13:40:56Z</time>
      </trkpt>
      <trkpt lat="47.18977" lon="5.36454">
        <ele>184.710571</ele>
        <time>2012-09-28T13:41:22Z</time>
      </trkpt>
      <trkpt lat="47.18925" lon="5.36307">
        <ele>184.710571</ele>
        <time>2012-09-28T13:41:40Z</time>
      </trkpt>
      <trkpt lat="47.18861" lon="5.36185">
        <ele>184.710571</ele>
        <time>2012-09-28T13:41:56Z</time>
      </trkpt>
      <trkpt lat="47.18768" lon="5.36106">
        <ele>184.229858</ele>
        <time>2012-09-28T13:42:12Z</time>
      </trkpt>
      <trkpt lat="47.18643" lon="5.36019">
        <ele>184.229858</ele>
        <time>2012-09-28T13:42:33Z</time>
      </trkpt>
      <trkpt lat="47.18509" lon="5.35885">
        <ele>184.229858</ele>
        <time>2012-09-28T13:42:58Z</time>
      </trkpt>
      <trkpt lat="47.18317" lon="5.35694">
        <ele>184.229858</ele>
        <time>2012-09-28T13:43:34Z</time>
      </trkpt>
      <trkpt lat="47.18187" lon="5.35552">
        <ele>184.229858</ele>
        <time>2012-09-28T13:44:00Z</time>
      </trkpt>
      <trkpt lat="47.18123" lon="5.35519">
        <ele>184.229858</ele>
        <time>2012-09-28T13:44:11Z</time>
      </trkpt>
      <trkpt lat="47.18017" lon="5.35484">
        <ele>184.229858</ele>
        <time>2012-09-28T13:44:28Z</time>
      </trkpt>
      <trkpt lat="47.17944" lon="5.35443">
        <ele>183.749023</ele>
        <time>2012-09-28T13:44:41Z</time>
      </trkpt>
      <trkpt lat="47.17812" lon="5.35371">
        <ele>184.229858</ele>
        <time>2012-09-28T13:45:03Z</time>
      </trkpt>
      <trkpt lat="47.17711" lon="5.35287">
        <ele>185.671753</ele>
        <time>2012-09-28T13:45:22Z</time>
      </trkpt>
      <trkpt lat="47.17659" lon="5.35245">
        <ele>186.633179</ele>
        <time>2012-09-28T13:45:32Z</time>
      </trkpt>
      <trkpt lat="47.1758" lon="5.35216">
        <ele>186.633179</ele>
        <time>2012-09-28T13:45:45Z</time>
      </trkpt>
      <trkpt lat="47.17446" lon="5.35183">
        <ele>187.11377</ele>
        <time>2012-09-28T13:46:06Z</time>
      </trkpt>
      <trkpt lat="47.17314" lon="5.35136">
        <ele>187.11377</ele>
        <time>2012-09-28T13:46:27Z</time>
      </trkpt>
      <trkpt lat="47.17187" lon="5.35106">
        <ele>186.152466</ele>
        <time>2012-09-28T13:46:47Z</time>
      </trkpt>
      <trkpt lat="47.1718" lon="5.35106">
        <ele>186.152466</ele>
        <time>2012-09-28T13:46:48Z</time>
      </trkpt>
      <trkpt lat="47.17176" lon="5.3511">
        <ele>185.671753</ele>
        <time>2012-09-28T13:46:51Z</time>
      </trkpt>
      <trkpt lat="47.17065" lon="5.35096">
        <ele>185.191162</ele>
        <time>2012-09-28T13:47:05Z</time>
      </trkpt>
      <trkpt lat="47.16957" lon="5.35145">
        <ele>185.191162</ele>
        <time>2012-09-28T13:47:22Z</time>
      </trkpt>
      <trkpt lat="47.16847" lon="5.35229">
        <ele>184.710571</ele>
        <time>2012-09-28T13:47:41Z</time>
      </trkpt>
      <trkpt lat="47.16759" lon="5.35293">
        <ele>185.191162</ele>
        <time>2012-09-28T13:47:56Z</time>
      </trkpt>
      <trkpt lat="47.16623" lon="5.35351">
        <ele>184.710571</ele>
        <time>2012-09-28T13:48:17Z</time>
      </trkpt>
      <trkpt lat="47.16514" lon="5.35376">
        <ele>184.710571</ele>
        <time>2012-09-28T13:48:34Z</time>
      </trkpt>
      <trkpt lat="47.16406" lon="5.35415">
        <ele>185.191162</ele>
        <time>2012-09-28T13:48:51Z</time>
      </trkpt>
      <trkpt lat="47.16249" lon="5.3549">
        <ele>184.710571</ele>
        <time>2012-09-28T13:49:16Z</time>
      </trkpt>
      <trkpt lat="47.16178" lon="5.3549">
        <ele>184.710571</ele>
        <time>2012-09-28T13:49:27Z</time>
      </trkpt>
      <trkpt lat="47.16059" lon="5.35494">
        <ele>184.710571</ele>
        <time>2012-09-28T13:49:45Z</time>
      </trkpt>
      <trkpt lat="47.15955" lon="5.35475">
        <ele>184.710571</ele>
        <time>2012-09-28T13:50:01Z</time>
      </trkpt>
      <trkpt lat="47.15807" lon="5.35439">
        <ele>184.710571</ele>
        <time>2012-09-28T13:50:24Z</time>
      </trkpt>
      <trkpt lat="47.15698" lon="5.35374">
        <ele>184.710571</ele>
        <time>2012-09-28T13:50:42Z</time>
      </trkpt>
      <trkpt lat="47.15557" lon="5.35325">
        <ele>184.229858</ele>
        <time>2012-09-28T13:51:04Z</time>
      </trkpt>
      <trkpt lat="47.15383" lon="5.35269">
        <ele>185.671753</ele>
        <time>2012-09-28T13:51:31Z</time>
      </trkpt>
      <trkpt lat="47.15245" lon="5.35224">
        <ele>185.191162</ele>
        <time>2012-09-28T13:51:53Z</time>
      </trkpt>
      <trkpt lat="47.15232" lon="5.3522">
        <ele>185.191162</ele>
        <time>2012-09-28T13:51:55Z</time>
      </trkpt>
      <trkpt lat="47.15127" lon="5.35231">
        <ele>184.229858</ele>
        <time>2012-09-28T13:52:11Z</time>
      </trkpt>
      <trkpt lat="47.15075" lon="5.35236">
        <ele>184.229858</ele>
        <time>2012-09-28T13:52:19Z</time>
      </trkpt>
      <trkpt lat="47.14996" lon="5.35199">
        <ele>184.229858</ele>
        <time>2012-09-28T13:52:32Z</time>
      </trkpt>
      <trkpt lat="47.14906" lon="5.35134">
        <ele>184.229858</ele>
        <time>2012-09-28T13:52:48Z</time>
      </trkpt>
      <trkpt lat="47.14804" lon="5.3505">
        <ele>183.749023</ele>
        <time>2012-09-28T13:53:07Z</time>
      </trkpt>
      <trkpt lat="47.14675" lon="5.34933">
        <ele>184.229858</ele>
        <time>2012-09-28T13:53:30Z</time>
      </trkpt>
      <trkpt lat="47.14563" lon="5.34818">
        <ele>183.749023</ele>
        <time>2012-09-28T13:53:51Z</time>
      </trkpt>
      <trkpt lat="47.14433" lon="5.34706">
        <ele>184.229858</ele>
        <time>2012-09-28T13:54:14Z</time>
      </trkpt>
      <trkpt lat="47.1431" lon="5.34639">
        <ele>184.710571</ele>
        <time>2012-09-28T13:54:34Z</time>
      </trkpt>
      <trkpt lat="47.14177" lon="5.3457">
        <ele>183.749023</ele>
        <time>2012-09-28T13:54:55Z</time>
      </trkpt>
      <trkpt lat="47.14029" lon="5.34505">
        <ele>183.268433</ele>
        <time>2012-09-28T13:55:18Z</time>
      </trkpt>
      <trkpt lat="47.13933" lon="5.34429">
        <ele>183.749023</ele>
        <time>2012-09-28T13:55:35Z</time>
      </trkpt>
      <trkpt lat="47.13907" lon="5.34405">
        <ele>183.268433</ele>
        <time>2012-09-28T13:55:41Z</time>
      </trkpt>
      <trkpt lat="47.13882" lon="5.34422">
        <ele>182.787842</ele>
        <time>2012-09-28T13:55:48Z</time>
      </trkpt>
      <trkpt lat="47.13822" lon="5.34523">
        <ele>182.787842</ele>
        <time>2012-09-28T13:56:04Z</time>
      </trkpt>
      <trkpt lat="47.13753" lon="5.34642">
        <ele>183.268433</ele>
        <time>2012-09-28T13:56:21Z</time>
      </trkpt>
      <trkpt lat="47.13701" lon="5.34735">
        <ele>183.268433</ele>
        <time>2012-09-28T13:56:35Z</time>
      </trkpt>
      <trkpt lat="47.13683" lon="5.34756">
        <ele>182.787842</ele>
        <time>2012-09-28T13:56:41Z</time>
      </trkpt>
      <trkpt lat="47.13665" lon="5.34784">
        <ele>182.787842</ele>
        <time>2012-09-28T13:56:56Z</time>
      </trkpt>
      <trkpt lat="47.13665" lon="5.34785">
        <ele>182.787842</ele>
        <time>2012-09-28T13:57:00Z</time>
      </trkpt>
      <trkpt lat="47.13664" lon="5.34787">
        <ele>182.787842</ele>
        <time>2012-09-28T13:57:16Z</time>
      </trkpt>
      <trkpt lat="47.13661" lon="5.34795">
        <ele>182.787842</ele>
        <time>2012-09-28T13:57:21Z</time>
      </trkpt>
      <trkpt lat="47.13659" lon="5.34798">
        <ele>182.787842</ele>
        <time>2012-09-28T13:57:23Z</time>
      </trkpt>
      <trkpt lat="47.13649" lon="5.34821">
        <ele>182.787842</ele>
        <time>2012-09-28T13:57:30Z</time>
      </trkpt>
      <trkpt lat="47.13629" lon="5.34852">
        <ele>182.307129</ele>
        <time>2012-09-28T13:57:42Z</time>
      </trkpt>
      <trkpt lat="47.13621" lon="5.34856">
        <ele>181.826416</ele>
        <time>2012-09-28T13:57:54Z</time>
      </trkpt>
      <trkpt lat="47.13621" lon="5.34857">
        <ele>181.345825</ele>
        <time>2012-09-28T13:58:26Z</time>
      </trkpt>
      <trkpt lat="47.13621" lon="5.34857">
        <ele>181.826416</ele>
        <time>2012-09-28T14:00:15Z</time>
      </trkpt>
      <trkpt lat="47.13621" lon="5.34856">
        <ele>181.826416</ele>
        <time>2012-09-28T14:02:53Z</time>
      </trkpt>
      <trkpt lat="47.13621" lon="5.34856">
        <ele>181.826416</ele>
        <time>2012-09-28T14:04:13Z</time>
      </trkpt>
      <trkpt lat="47.13621" lon="5.34856">
        <ele>181.345825</ele>
        <time>2012-09-28T14:04:57Z</time>
      </trkpt>
      <trkpt lat="47.13621" lon="5.34856">
        <ele>181.826416</ele>
        <time>2012-09-28T14:04:59Z</time>
      </trkpt>
      <trkpt lat="47.13621" lon="5.34858">
        <ele>181.826416</ele>
        <time>2012-09-28T14:06:11Z</time>
      </trkpt>
      <trkpt lat="47.13622" lon="5.34859">
        <ele>181.826416</ele>
        <time>2012-09-28T14:06:12Z</time>
      </trkpt>
      <trkpt lat="47.13622" lon="5.34863">
        <ele>182.307129</ele>
        <time>2012-09-28T14:06:14Z</time>
      </trkpt>
      <trkpt lat="47.13602" lon="5.34899">
        <ele>182.307129</ele>
        <time>2012-09-28T14:06:26Z</time>
      </trkpt>
      <trkpt lat="47.13596" lon="5.34908">
        <ele>182.307129</ele>
        <time>2012-09-28T14:06:28Z</time>
      </trkpt>
      <trkpt lat="47.13527" lon="5.35024">
        <ele>182.307129</ele>
        <time>2012-09-28T14:06:47Z</time>
      </trkpt>
      <trkpt lat="47.13444" lon="5.35166">
        <ele>182.307129</ele>
        <time>2012-09-28T14:07:07Z</time>
      </trkpt>
      <trkpt lat="47.13342" lon="5.35343">
        <ele>182.787842</ele>
        <time>2012-09-28T14:07:31Z</time>
      </trkpt>
      <trkpt lat="47.13275" lon="5.35462">
        <ele>182.787842</ele>
        <time>2012-09-28T14:07:46Z</time>
      </trkpt>
      <trkpt lat="47.13168" lon="5.35641">
        <ele>182.307129</ele>
        <time>2012-09-28T14:08:08Z</time>
      </trkpt>
      <trkpt lat="47.13069" lon="5.35812">
        <ele>181.345825</ele>
        <time>2012-09-28T14:08:30Z</time>
      </trkpt>
      <trkpt lat="47.12985" lon="5.35953">
        <ele>181.345825</ele>
        <time>2012-09-28T14:08:50Z</time>
      </trkpt>
      <trkpt lat="47.12894" lon="5.36043">
        <ele>182.787842</ele>
        <time>2012-09-28T14:09:07Z</time>
      </trkpt>
      <trkpt lat="47.12816" lon="5.36099">
        <ele>186.152466</ele>
        <time>2012-09-28T14:09:21Z</time>
      </trkpt>
      <trkpt lat="47.12708" lon="5.36177">
        <ele>187.59436</ele>
        <time>2012-09-28T14:09:41Z</time>
      </trkpt>
      <trkpt lat="47.1259" lon="5.36262">
        <ele>184.229858</ele>
        <time>2012-09-28T14:10:00Z</time>
      </trkpt>
      <trkpt lat="47.12479" lon="5.36361">
        <ele>181.826416</ele>
        <time>2012-09-28T14:10:17Z</time>
      </trkpt>
      <trkpt lat="47.12359" lon="5.36506">
        <ele>182.307129</ele>
        <time>2012-09-28T14:10:40Z</time>
      </trkpt>
      <trkpt lat="47.12267" lon="5.36621">
        <ele>183.268433</ele>
        <time>2012-09-28T14:10:59Z</time>
      </trkpt>
      <trkpt lat="47.12181" lon="5.36752">
        <ele>184.710571</ele>
        <time>2012-09-28T14:11:19Z</time>
      </trkpt>
      <trkpt lat="47.12131" lon="5.36829">
        <ele>187.59436</ele>
        <time>2012-09-28T14:11:32Z</time>
      </trkpt>
      <trkpt lat="47.12102" lon="5.36884">
        <ele>190.958984</ele>
        <time>2012-09-28T14:11:41Z</time>
      </trkpt>
      <trkpt lat="47.12063" lon="5.3694">
        <ele>194.32373</ele>
        <time>2012-09-28T14:11:53Z</time>
      </trkpt>
      <trkpt lat="47.11989" lon="5.37035">
        <ele>196.726929</ele>
        <time>2012-09-28T14:12:14Z</time>
      </trkpt>
      <trkpt lat="47.11919" lon="5.3716">
        <ele>195.765625</ele>
        <time>2012-09-28T14:12:33Z</time>
      </trkpt>
      <trkpt lat="47.11877" lon="5.37297">
        <ele>196.246338</ele>
        <time>2012-09-28T14:12:50Z</time>
      </trkpt>
      <trkpt lat="47.11861" lon="5.37466">
        <ele>198.649536</ele>
        <time>2012-09-28T14:13:09Z</time>
      </trkpt>
      <trkpt lat="47.11882" lon="5.37597">
        <ele>198.168945</ele>
        <time>2012-09-28T14:13:25Z</time>
      </trkpt>
      <trkpt lat="47.11883" lon="5.37732">
        <ele>196.246338</ele>
        <time>2012-09-28T14:13:39Z</time>
      </trkpt>
      <trkpt lat="47.11849" lon="5.37869">
        <ele>195.765625</ele>
        <time>2012-09-28T14:13:54Z</time>
      </trkpt>
      <trkpt lat="47.11761" lon="5.38037">
        <ele>197.688232</ele>
        <time>2012-09-28T14:14:18Z</time>
      </trkpt>
      <trkpt lat="47.11658" lon="5.38219">
        <ele>201.052856</ele>
        <time>2012-09-28T14:14:45Z</time>
      </trkpt>
      <trkpt lat="47.11575" lon="5.384">
        <ele>202.494873</ele>
        <time>2012-09-28T14:15:10Z</time>
      </trkpt>
      <trkpt lat="47.11568" lon="5.38434">
        <ele>202.014282</ele>
        <time>2012-09-28T14:15:14Z</time>
      </trkpt>
      <trkpt lat="47.11563" lon="5.38587">
        <ele>202.494873</ele>
        <time>2012-09-28T14:15:31Z</time>
      </trkpt>
      <trkpt lat="47.11569" lon="5.38761">
        <ele>203.93689</ele>
        <time>2012-09-28T14:15:50Z</time>
      </trkpt>
      <trkpt lat="47.116" lon="5.38975">
        <ele>204.41748</ele>
        <time>2012-09-28T14:16:14Z</time>
      </trkpt>
      <trkpt lat="47.11653" lon="5.39173">
        <ele>205.859497</ele>
        <time>2012-09-28T14:16:40Z</time>
      </trkpt>
      <trkpt lat="47.11726" lon="5.39405">
        <ele>204.898071</ele>
        <time>2012-09-28T14:17:08Z</time>
      </trkpt>
      <trkpt lat="47.11756" lon="5.39504">
        <ele>202.014282</ele>
        <time>2012-09-28T14:17:17Z</time>
      </trkpt>
      <trkpt lat="47.11763" lon="5.39526">
        <ele>201.052856</ele>
        <time>2012-09-28T14:17:19Z</time>
      </trkpt>
      <trkpt lat="47.11807" lon="5.39666">
        <ele>199.61084</ele>
        <time>2012-09-28T14:17:34Z</time>
      </trkpt>
      <trkpt lat="47.11834" lon="5.39767">
        <ele>202.975464</ele>
        <time>2012-09-28T14:17:49Z</time>
      </trkpt>
      <trkpt lat="47.11841" lon="5.39891">
        <ele>205.378784</ele>
        <time>2012-09-28T14:18:07Z</time>
      </trkpt>
      <trkpt lat="47.11821" lon="5.40058">
        <ele>205.859497</ele>
        <time>2012-09-28T14:18:29Z</time>
      </trkpt>
      <trkpt lat="47.1181" lon="5.40251">
        <ele>205.378784</ele>
        <time>2012-09-28T14:18:53Z</time>
      </trkpt>
      <trkpt lat="47.11816" lon="5.40325">
        <ele>205.378784</ele>
        <time>2012-09-28T14:19:02Z</time>
      </trkpt>
      <trkpt lat="47.11827" lon="5.40352">
        <ele>205.378784</ele>
        <time>2012-09-28T14:19:06Z</time>
      </trkpt>
      <trkpt lat="47.1186" lon="5.40402">
        <ele>204.898071</ele>
        <time>2012-09-28T14:19:14Z</time>
      </trkpt>
      <trkpt lat="47.11896" lon="5.40529">
        <ele>204.41748</ele>
        <time>2012-09-28T14:19:30Z</time>
      </trkpt>
      <trkpt lat="47.11912" lon="5.40679">
        <ele>206.340088</ele>
        <time>2012-09-28T14:19:49Z</time>
      </trkpt>
      <trkpt lat="47.11889" lon="5.40798">
        <ele>207.301392</ele>
        <time>2012-09-28T14:20:04Z</time>
      </trkpt>
      <trkpt lat="47.11856" lon="5.40898">
        <ele>206.820679</ele>
        <time>2012-09-28T14:20:17Z</time>
      </trkpt>
      <trkpt lat="47.11845" lon="5.40948">
        <ele>206.820679</ele>
        <time>2012-09-28T14:20:23Z</time>
      </trkpt>
      <trkpt lat="47.11834" lon="5.40977">
        <ele>207.301392</ele>
        <time>2012-09-28T14:20:27Z</time>
      </trkpt>
      <trkpt lat="47.11803" lon="5.41134">
        <ele>208.262817</ele>
        <time>2012-09-28T14:20:46Z</time>
      </trkpt>
      <trkpt lat="47.11755" lon="5.41277">
        <ele>208.743408</ele>
        <time>2012-09-28T14:21:05Z</time>
      </trkpt>
      <trkpt lat="47.1173" lon="5.41353">
        <ele>209.224121</ele>
        <time>2012-09-28T14:21:15Z</time>
      </trkpt>
      <trkpt lat="47.11664" lon="5.41545">
        <ele>209.704834</ele>
        <time>2012-09-28T14:21:40Z</time>
      </trkpt>
      <trkpt lat="47.11591" lon="5.41755">
        <ele>210.185425</ele>
        <time>2012-09-28T14:22:07Z</time>
      </trkpt>
      <trkpt lat="47.11534" lon="5.41924">
        <ele>209.704834</ele>
        <time>2012-09-28T14:22:28Z</time>
      </trkpt>
      <trkpt lat="47.1149" lon="5.42049">
        <ele>210.185425</ele>
        <time>2012-09-28T14:22:44Z</time>
      </trkpt>
      <trkpt lat="47.1142" lon="5.42218">
        <ele>211.146729</ele>
        <time>2012-09-28T14:23:07Z</time>
      </trkpt>
      <trkpt lat="47.11355" lon="5.42369">
        <ele>211.146729</ele>
        <time>2012-09-28T14:23:28Z</time>
      </trkpt>
      <trkpt lat="47.11273" lon="5.42534">
        <ele>211.627441</ele>
        <time>2012-09-28T14:23:52Z</time>
      </trkpt>
      <trkpt lat="47.11187" lon="5.42634">
        <ele>210.666016</ele>
        <time>2012-09-28T14:24:09Z</time>
      </trkpt>
      <trkpt lat="47.11082" lon="5.42755">
        <ele>211.627441</ele>
        <time>2012-09-28T14:24:31Z</time>
      </trkpt>
      <trkpt lat="47.10981" lon="5.42856">
        <ele>212.108032</ele>
        <time>2012-09-28T14:24:51Z</time>
      </trkpt>
      <trkpt lat="47.1089" lon="5.42928">
        <ele>212.108032</ele>
        <time>2012-09-28T14:25:08Z</time>
      </trkpt>
      <trkpt lat="47.10851" lon="5.43024">
        <ele>212.588623</ele>
        <time>2012-09-28T14:25:21Z</time>
      </trkpt>
      <trkpt lat="47.10837" lon="5.43154">
        <ele>212.588623</ele>
        <time>2012-09-28T14:25:36Z</time>
      </trkpt>
      <trkpt lat="47.10828" lon="5.43188">
        <ele>213.069336</ele>
        <time>2012-09-28T14:25:40Z</time>
      </trkpt>
      <trkpt lat="47.10787" lon="5.43296">
        <ele>215.953247</ele>
        <time>2012-09-28T14:25:54Z</time>
      </trkpt>
      <trkpt lat="47.10745" lon="5.43377">
        <ele>219.317993</ele>
        <time>2012-09-28T14:26:06Z</time>
      </trkpt>
      <trkpt lat="47.10665" lon="5.435">
        <ele>217.875977</ele>
        <time>2012-09-28T14:26:25Z</time>
      </trkpt>
      <trkpt lat="47.10651" lon="5.4353">
        <ele>217.875977</ele>
        <time>2012-09-28T14:26:36Z</time>
      </trkpt>
      <trkpt lat="47.10649" lon="5.43541">
        <ele>217.875977</ele>
        <time>2012-09-28T14:26:40Z</time>
      </trkpt>
      <trkpt lat="47.10631" lon="5.43608">
        <ele>217.875977</ele>
        <time>2012-09-28T14:26:55Z</time>
      </trkpt>
      <trkpt lat="47.10627" lon="5.43626">
        <ele>218.356567</ele>
        <time>2012-09-28T14:26:58Z</time>
      </trkpt>
      <trkpt lat="47.10605" lon="5.43687">
        <ele>218.356567</ele>
        <time>2012-09-28T14:27:10Z</time>
      </trkpt>
      <trkpt lat="47.10551" lon="5.43726">
        <ele>218.356567</ele>
        <time>2012-09-28T14:27:26Z</time>
      </trkpt>
      <trkpt lat="47.10532" lon="5.43746">
        <ele>218.356567</ele>
        <time>2012-09-28T14:27:33Z</time>
      </trkpt>
      <trkpt lat="47.10519" lon="5.43769">
        <ele>218.356567</ele>
        <time>2012-09-28T14:27:38Z</time>
      </trkpt>
      <trkpt lat="47.10512" lon="5.43794">
        <ele>218.356567</ele>
        <time>2012-09-28T14:27:42Z</time>
      </trkpt>
      <trkpt lat="47.10503" lon="5.43926">
        <ele>220.279175</ele>
        <time>2012-09-28T14:28:02Z</time>
      </trkpt>
      <trkpt lat="47.10503" lon="5.43997">
        <ele>221.721191</ele>
        <time>2012-09-28T14:28:13Z</time>
      </trkpt>
      <trkpt lat="47.1051" lon="5.44019">
        <ele>222.201782</ele>
        <time>2012-09-28T14:28:17Z</time>
      </trkpt>
      <trkpt lat="47.10554" lon="5.44103">
        <ele>226.047119</ele>
        <time>2012-09-28T14:28:35Z</time>
      </trkpt>
      <trkpt lat="47.10571" lon="5.44211">
        <ele>228.450439</ele>
        <time>2012-09-28T14:28:54Z</time>
      </trkpt>
      <trkpt lat="47.10577" lon="5.44312">
        <ele>231.814941</ele>
        <time>2012-09-28T14:29:10Z</time>
      </trkpt>
      <trkpt lat="47.10581" lon="5.44395">
        <ele>234.699097</ele>
        <time>2012-09-28T14:29:24Z</time>
      </trkpt>
      <trkpt lat="47.10572" lon="5.44502">
        <ele>238.063599</ele>
        <time>2012-09-28T14:29:42Z</time>
      </trkpt>
      <trkpt lat="47.1056" lon="5.44585">
        <ele>240.947632</ele>
        <time>2012-09-28T14:29:57Z</time>
      </trkpt>
      <trkpt lat="47.10552" lon="5.4466">
        <ele>243.831543</ele>
        <time>2012-09-28T14:30:11Z</time>
      </trkpt>
      <trkpt lat="47.1055" lon="5.44739">
        <ele>247.196045</ele>
        <time>2012-09-28T14:30:26Z</time>
      </trkpt>
      <trkpt lat="47.10545" lon="5.44824">
        <ele>250.0802</ele>
        <time>2012-09-28T14:30:41Z</time>
      </trkpt>
      <trkpt lat="47.10538" lon="5.44909">
        <ele>253.444702</ele>
        <time>2012-09-28T14:30:56Z</time>
      </trkpt>
      <trkpt lat="47.10522" lon="5.44985">
        <ele>256.809326</ele>
        <time>2012-09-28T14:31:08Z</time>
      </trkpt>
      <trkpt lat="47.10493" lon="5.45112">
        <ele>259.693359</ele>
        <time>2012-09-28T14:31:25Z</time>
      </trkpt>
      <trkpt lat="47.1051" lon="5.45261">
        <ele>260.654541</ele>
        <time>2012-09-28T14:31:44Z</time>
      </trkpt>
      <trkpt lat="47.10499" lon="5.4539">
        <ele>258.251343</ele>
        <time>2012-09-28T14:31:57Z</time>
      </trkpt>
      <trkpt lat="47.10469" lon="5.45495">
        <ele>255.36731</ele>
        <time>2012-09-28T14:32:06Z</time>
      </trkpt>
      <trkpt lat="47.10439" lon="5.45651">
        <ele>253.925415</ele>
        <time>2012-09-28T14:32:21Z</time>
      </trkpt>
      <trkpt lat="47.10393" lon="5.45784">
        <ele>252.963989</ele>
        <time>2012-09-28T14:32:36Z</time>
      </trkpt>
      <trkpt lat="47.10352" lon="5.4593">
        <ele>250.0802</ele>
        <time>2012-09-28T14:32:50Z</time>
      </trkpt>
      <trkpt lat="47.10339" lon="5.45997">
        <ele>248.157593</ele>
        <time>2012-09-28T14:32:56Z</time>
      </trkpt>
      <trkpt lat="47.1032" lon="5.46026">
        <ele>247.676758</ele>
        <time>2012-09-28T14:33:00Z</time>
      </trkpt>
      <trkpt lat="47.10293" lon="5.4603">
        <ele>246.234863</ele>
        <time>2012-09-28T14:33:09Z</time>
      </trkpt>
      <trkpt lat="47.10298" lon="5.46038">
        <ele>246.234863</ele>
        <time>2012-09-28T14:33:17Z</time>
      </trkpt>
      <trkpt lat="47.10296" lon="5.46031">
        <ele>246.234863</ele>
        <time>2012-09-28T14:33:21Z</time>
      </trkpt>
      <trkpt lat="47.10246" lon="5.46006">
        <ele>246.234863</ele>
        <time>2012-09-28T14:33:39Z</time>
      </trkpt>
      <trkpt lat="47.10196" lon="5.45978">
        <ele>246.715454</ele>
        <time>2012-09-28T14:33:53Z</time>
      </trkpt>
      <trkpt lat="47.1017" lon="5.45969">
        <ele>246.234863</ele>
        <time>2012-09-28T14:33:59Z</time>
      </trkpt>
      <trkpt lat="47.10137" lon="5.45969">
        <ele>245.273438</ele>
        <time>2012-09-28T14:34:06Z</time>
      </trkpt>
      <trkpt lat="47.10108" lon="5.45953">
        <ele>244.312256</ele>
        <time>2012-09-28T14:34:12Z</time>
      </trkpt>
      <trkpt lat="47.10097" lon="5.45931">
        <ele>244.312256</ele>
        <time>2012-09-28T14:34:16Z</time>
      </trkpt>
      <trkpt lat="47.10071" lon="5.45914">
        <ele>243.35083</ele>
        <time>2012-09-28T14:34:22Z</time>
      </trkpt>
      <trkpt lat="47.10007" lon="5.45923">
        <ele>242.870239</ele>
        <time>2012-09-28T14:34:34Z</time>
      </trkpt>
      <trkpt lat="47.09995" lon="5.45925">
        <ele>242.870239</ele>
        <time>2012-09-28T14:34:36Z</time>
      </trkpt>
      <trkpt lat="47.09944" lon="5.45933">
        <ele>241.428223</ele>
        <time>2012-09-28T14:34:45Z</time>
      </trkpt>
      <trkpt lat="47.09893" lon="5.45934">
        <ele>239.986206</ele>
        <time>2012-09-28T14:34:52Z</time>
      </trkpt>
      <trkpt lat="47.09792" lon="5.45907">
        <ele>236.140991</ele>
        <time>2012-09-28T14:35:03Z</time>
      </trkpt>
      <trkpt lat="47.09679" lon="5.45878">
        <ele>233.737671</ele>
        <time>2012-09-28T14:35:16Z</time>
      </trkpt>
      <trkpt lat="47.09594" lon="5.45864">
        <ele>230.373047</ele>
        <time>2012-09-28T14:35:26Z</time>
      </trkpt>
      <trkpt lat="47.09585" lon="5.45861">
        <ele>230.373047</ele>
        <time>2012-09-28T14:35:27Z</time>
      </trkpt>
      <trkpt lat="47.09576" lon="5.4586">
        <ele>229.892334</ele>
        <time>2012-09-28T14:35:28Z</time>
      </trkpt>
      <trkpt lat="47.09549" lon="5.45857">
        <ele>229.411743</ele>
        <time>2012-09-28T14:35:31Z</time>
      </trkpt>
      <trkpt lat="47.09515" lon="5.45839">
        <ele>227.489136</ele>
        <time>2012-09-28T14:35:35Z</time>
      </trkpt>
      <trkpt lat="47.09429" lon="5.45748">
        <ele>225.566528</ele>
        <time>2012-09-28T14:35:48Z</time>
      </trkpt>
      <trkpt lat="47.09386" lon="5.45757">
        <ele>224.124512</ele>
        <time>2012-09-28T14:35:54Z</time>
      </trkpt>
      <trkpt lat="47.09364" lon="5.45779">
        <ele>224.124512</ele>
        <time>2012-09-28T14:35:57Z</time>
      </trkpt>
      <trkpt lat="47.09324" lon="5.45786">
        <ele>224.124512</ele>
        <time>2012-09-28T14:36:02Z</time>
      </trkpt>
      <trkpt lat="47.09176" lon="5.45741">
        <ele>222.201782</ele>
        <time>2012-09-28T14:36:20Z</time>
      </trkpt>
      <trkpt lat="47.09152" lon="5.45739">
        <ele>221.721191</ele>
        <time>2012-09-28T14:36:23Z</time>
      </trkpt>
      <trkpt lat="47.09068" lon="5.45769">
        <ele>219.317993</ele>
        <time>2012-09-28T14:36:33Z</time>
      </trkpt>
      <trkpt lat="47.09032" lon="5.45768">
        <ele>218.356567</ele>
        <time>2012-09-28T14:36:37Z</time>
      </trkpt>
      <trkpt lat="47.08918" lon="5.45706">
        <ele>216.43396</ele>
        <time>2012-09-28T14:36:53Z</time>
      </trkpt>
      <trkpt lat="47.08785" lon="5.45615">
        <ele>217.395386</ele>
        <time>2012-09-28T14:37:14Z</time>
      </trkpt>
      <trkpt lat="47.08682" lon="5.45508">
        <ele>216.914673</ele>
        <time>2012-09-28T14:37:33Z</time>
      </trkpt>
      <trkpt lat="47.08658" lon="5.45469">
        <ele>216.43396</ele>
        <time>2012-09-28T14:37:41Z</time>
      </trkpt>
      <trkpt lat="47.0864" lon="5.45467">
        <ele>215.953247</ele>
        <time>2012-09-28T14:37:47Z</time>
      </trkpt>
      <trkpt lat="47.08628" lon="5.45472">
        <ele>214.991943</ele>
        <time>2012-09-28T14:37:50Z</time>
      </trkpt>
      <trkpt lat="47.0862" lon="5.45478">
        <ele>214.991943</ele>
        <time>2012-09-28T14:37:52Z</time>
      </trkpt>
      <trkpt lat="47.08587" lon="5.455">
        <ele>214.51123</ele>
        <time>2012-09-28T14:37:59Z</time>
      </trkpt>
      <trkpt lat="47.08497" lon="5.45536">
        <ele>213.069336</ele>
        <time>2012-09-28T14:38:16Z</time>
      </trkpt>
      <trkpt lat="47.08459" lon="5.45551">
        <ele>212.588623</ele>
        <time>2012-09-28T14:38:23Z</time>
      </trkpt>
      <trkpt lat="47.08426" lon="5.45555">
        <ele>211.627441</ele>
        <time>2012-09-28T14:38:35Z</time>
      </trkpt>
      <trkpt lat="47.08402" lon="5.45561">
        <ele>211.146729</ele>
        <time>2012-09-28T14:38:44Z</time>
      </trkpt>
      <trkpt lat="47.08358" lon="5.45587">
        <ele>210.666016</ele>
        <time>2012-09-28T14:38:55Z</time>
      </trkpt>
      <trkpt lat="47.08336" lon="5.45593">
        <ele>210.666016</ele>
        <time>2012-09-28T14:39:01Z</time>
      </trkpt>
      <trkpt lat="47.08333" lon="5.45614">
        <ele>210.185425</ele>
        <time>2012-09-28T14:39:05Z</time>
      </trkpt>
      <trkpt lat="47.08293" lon="5.45653">
        <ele>211.146729</ele>
        <time>2012-09-28T14:39:16Z</time>
      </trkpt>
      <trkpt lat="47.08204" lon="5.45734">
        <ele>212.108032</ele>
        <time>2012-09-28T14:39:38Z</time>
      </trkpt>
      <trkpt lat="47.08124" lon="5.45822">
        <ele>214.991943</ele>
        <time>2012-09-28T14:39:59Z</time>
      </trkpt>
      <trkpt lat="47.08098" lon="5.45846">
        <ele>215.472656</ele>
        <time>2012-09-28T14:40:11Z</time>
      </trkpt>
      <trkpt lat="47.08095" lon="5.4585">
        <ele>215.472656</ele>
        <time>2012-09-28T14:40:35Z</time>
      </trkpt>
      <trkpt lat="47.08098" lon="5.45869">
        <ele>216.43396</ele>
        <time>2012-09-28T14:40:40Z</time>
      </trkpt>
      <trkpt lat="47.08099" lon="5.45902">
        <ele>216.914673</ele>
        <time>2012-09-28T14:40:45Z</time>
      </trkpt>
      <trkpt lat="47.0808" lon="5.46013">
        <ele>220.759888</ele>
        <time>2012-09-28T14:41:02Z</time>
      </trkpt>
      <trkpt lat="47.08063" lon="5.46105">
        <ele>223.643799</ele>
        <time>2012-09-28T14:41:16Z</time>
      </trkpt>
      <trkpt lat="47.0805" lon="5.46165">
        <ele>225.566528</ele>
        <time>2012-09-28T14:41:25Z</time>
      </trkpt>
      <trkpt lat="47.08026" lon="5.46256">
        <ele>228.931152</ele>
        <time>2012-09-28T14:41:39Z</time>
      </trkpt>
      <trkpt lat="47.08019" lon="5.46282">
        <ele>229.892334</ele>
        <time>2012-09-28T14:41:43Z</time>
      </trkpt>
      <trkpt lat="47.08008" lon="5.46299">
        <ele>231.334351</ele>
        <time>2012-09-28T14:41:47Z</time>
      </trkpt>
      <trkpt lat="47.07999" lon="5.46335">
        <ele>232.295776</ele>
        <time>2012-09-28T14:41:56Z</time>
      </trkpt>
      <trkpt lat="47.08007" lon="5.46346">
        <ele>232.295776</ele>
        <time>2012-09-28T14:41:59Z</time>
      </trkpt>
      <trkpt lat="47.08033" lon="5.4642">
        <ele>232.776489</ele>
        <time>2012-09-28T14:42:13Z</time>
      </trkpt>
      <trkpt lat="47.08081" lon="5.46513">
        <ele>231.814941</ele>
        <time>2012-09-28T14:42:28Z</time>
      </trkpt>
      <trkpt lat="47.08092" lon="5.46534">
        <ele>231.814941</ele>
        <time>2012-09-28T14:42:31Z</time>
      </trkpt>
      <trkpt lat="47.0814" lon="5.46625">
        <ele>234.699097</ele>
        <time>2012-09-28T14:42:46Z</time>
      </trkpt>
      <trkpt lat="47.08159" lon="5.46659">
        <ele>237.102295</ele>
        <time>2012-09-28T14:42:53Z</time>
      </trkpt>
      <trkpt lat="47.08191" lon="5.46759">
        <ele>239.986206</ele>
        <time>2012-09-28T14:43:08Z</time>
      </trkpt>
      <trkpt lat="47.08185" lon="5.46854">
        <ele>241.428223</ele>
        <time>2012-09-28T14:43:23Z</time>
      </trkpt>
      <trkpt lat="47.08166" lon="5.46951">
        <ele>243.831543</ele>
        <time>2012-09-28T14:43:42Z</time>
      </trkpt>
      <trkpt lat="47.0817" lon="5.47059">
        <ele>245.273438</ele>
        <time>2012-09-28T14:43:57Z</time>
      </trkpt>
      <trkpt lat="47.08189" lon="5.47318">
        <ele>247.196045</ele>
        <time>2012-09-28T14:44:29Z</time>
      </trkpt>
      <trkpt lat="47.0818" lon="5.47462">
        <ele>243.831543</ele>
        <time>2012-09-28T14:44:44Z</time>
      </trkpt>
      <trkpt lat="47.08162" lon="5.47511">
        <ele>240.467041</ele>
        <time>2012-09-28T14:44:48Z</time>
      </trkpt>
      <trkpt lat="47.08146" lon="5.47545">
        <ele>237.582886</ele>
        <time>2012-09-28T14:44:52Z</time>
      </trkpt>
      <trkpt lat="47.08141" lon="5.47552">
        <ele>236.140991</ele>
        <time>2012-09-28T14:44:54Z</time>
      </trkpt>
      <trkpt lat="47.08135" lon="5.47556">
        <ele>236.140991</ele>
        <time>2012-09-28T14:44:56Z</time>
      </trkpt>
      <trkpt lat="47.08121" lon="5.47561">
        <ele>236.140991</ele>
        <time>2012-09-28T14:44:59Z</time>
      </trkpt>
      <trkpt lat="47.08091" lon="5.47611">
        <ele>235.660278</ele>
        <time>2012-09-28T14:45:07Z</time>
      </trkpt>
      <trkpt lat="47.081" lon="5.47651">
        <ele>235.179688</ele>
        <time>2012-09-28T14:45:11Z</time>
      </trkpt>
      <trkpt lat="47.08084" lon="5.47771">
        <ele>232.295776</ele>
        <time>2012-09-28T14:45:22Z</time>
      </trkpt>
      <trkpt lat="47.08052" lon="5.47891">
        <ele>228.931152</ele>
        <time>2012-09-28T14:45:32Z</time>
      </trkpt>
      <trkpt lat="47.08018" lon="5.4802">
        <ele>225.566528</ele>
        <time>2012-09-28T14:45:42Z</time>
      </trkpt>
      <trkpt lat="47.07986" lon="5.48139">
        <ele>222.682495</ele>
        <time>2012-09-28T14:45:51Z</time>
      </trkpt>
      <trkpt lat="47.07954" lon="5.48259">
        <ele>219.317993</ele>
        <time>2012-09-28T14:46:00Z</time>
      </trkpt>
      <trkpt lat="47.07926" lon="5.48367">
        <ele>216.43396</ele>
        <time>2012-09-28T14:46:08Z</time>
      </trkpt>
      <trkpt lat="47.07908" lon="5.48433">
        <ele>214.03064</ele>
        <time>2012-09-28T14:46:13Z</time>
      </trkpt>
      <trkpt lat="47.0789" lon="5.48501">
        <ele>212.108032</ele>
        <time>2012-09-28T14:46:18Z</time>
      </trkpt>
      <trkpt lat="47.07875" lon="5.48555">
        <ele>210.185425</ele>
        <time>2012-09-28T14:46:22Z</time>
      </trkpt>
      <trkpt lat="47.07842" lon="5.48682">
        <ele>207.301392</ele>
        <time>2012-09-28T14:46:31Z</time>
      </trkpt>
      <trkpt lat="47.07812" lon="5.48796">
        <ele>203.93689</ele>
        <time>2012-09-28T14:46:39Z</time>
      </trkpt>
      <trkpt lat="47.07797" lon="5.48851">
        <ele>202.975464</ele>
        <time>2012-09-28T14:46:43Z</time>
      </trkpt>
      <trkpt lat="47.07772" lon="5.48884">
        <ele>202.014282</ele>
        <time>2012-09-28T14:46:47Z</time>
      </trkpt>
      <trkpt lat="47.0775" lon="5.48898">
        <ele>201.533569</ele>
        <time>2012-09-28T14:46:50Z</time>
      </trkpt>
      <trkpt lat="47.07721" lon="5.48893">
        <ele>201.533569</ele>
        <time>2012-09-28T14:46:54Z</time>
      </trkpt>
      <trkpt lat="47.07693" lon="5.48933">
        <ele>201.052856</ele>
        <time>2012-09-28T14:47:01Z</time>
      </trkpt>
      <trkpt lat="47.0769" lon="5.48951">
        <ele>201.533569</ele>
        <time>2012-09-28T14:47:03Z</time>
      </trkpt>
      <trkpt lat="47.07678" lon="5.48982">
        <ele>201.533569</ele>
        <time>2012-09-28T14:47:07Z</time>
      </trkpt>
      <trkpt lat="47.07597" lon="5.49085">
        <ele>202.014282</ele>
        <time>2012-09-28T14:47:24Z</time>
      </trkpt>
      <trkpt lat="47.0755" lon="5.49102">
        <ele>201.052856</ele>
        <time>2012-09-28T14:47:32Z</time>
      </trkpt>
      <trkpt lat="47.07522" lon="5.49064">
        <ele>200.091675</ele>
        <time>2012-09-28T14:47:38Z</time>
      </trkpt>
      <trkpt lat="47.07514" lon="5.49044">
        <ele>199.61084</ele>
        <time>2012-09-28T14:47:43Z</time>
      </trkpt>
      <trkpt lat="47.07513" lon="5.49049">
        <ele>199.130127</ele>
        <time>2012-09-28T14:47:50Z</time>
      </trkpt>
      <trkpt lat="47.07513" lon="5.49052">
        <ele>199.130127</ele>
        <time>2012-09-28T14:48:21Z</time>
      </trkpt>
      <trkpt lat="47.07513" lon="5.49052">
        <ele>199.61084</ele>
        <time>2012-09-28T14:48:26Z</time>
      </trkpt>
    </trkseg>
  </trk>
</gpx>